Another Hard Day at the Office Weather Stats

 
 
 

High monthly outside Temperature, 16.7 , C
Low monthly outside Temperature, 1.9 , C
High yearly outside Temperature, 32.2 , C
Low yearly outside Temperature, 0.6 , C

Low monthly barometer, 988.3 , mb
High monthly barometer, 1026.7 , mb
Low yearly barometer, 976.8 , mb
High yearly barometer 1035.7 , mb

High wind speed, 21.0 , mph
Time of High wind speed, 17:59 , mph
High monthly wind speed, 47.0 , mph
High yearly wind speed, 64.0 , mph

 

 




3123
                    Temp     Hi    Low   Out    Dew  Wind  Wind   Wind    Hi    Hi   Wind   Heat    THW                Rain    Heat    Cool    In     In    In     In     In   In Air  Wind  Wind    ISS   Arc.
  Date    Time     Out   Temp   Temp   Hum    Pt. Speed   Dir    Run Speed   Dir  Chill  Index  Index   Bar    Rain  Rate    D-D     D-D    Temp   Hum    Dew   Heat    EMC Density  Samp   Tx   Recept  Int.
---------------------------------------------------------------------------------------------------------------------------------------------------------------------------------------------------------------
26/11/14   0:05    8.5    8.6    8.5    96    7.9   4.0    NE   0.33   8.0   ENE    7.7    8.7    7.9  1013.1  0.00   0.0   0.034   0.000   24.0    51   13.2   24.1   9.35 1.1705    116    1    100.0    5 
26/11/14   0:10    8.6    8.6    8.5    96    8.0   5.0    NE   0.42  10.0   ENE    7.3    8.8    7.6  1012.9  0.00   0.0   0.034   0.000   23.9    51   13.2   24.1   9.35 1.1706    117    1    100.0    5 
26/11/14   0:15    8.6    8.6    8.5    96    8.0   4.0    NE   0.33   9.0   ENE    7.7    8.8    7.9  1012.8  0.00   0.0   0.034   0.000   23.9    51   13.2   24.1   9.35 1.1705    117    1    100.0    5 
26/11/14   0:20    8.6    8.6    8.5    96    8.0   3.0   ENE   0.25   8.0   ENE    8.2    8.8    8.4  1012.9  0.00   0.0   0.034   0.000   23.9    51   13.2   24.1   9.35 1.1705    117    1    100.0    5 
26/11/14   0:25    8.6    8.6    8.5    96    8.0   4.0    NE   0.33   7.0    NE    7.7    8.8    7.9  1012.8  0.00   0.0   0.034   0.000   23.9    51   13.2   24.1   9.35 1.1704    117    1    100.0    5 
26/11/14   0:30    8.6    8.6    8.6    96    8.0   5.0   NNE   0.42  11.0    NE    7.3    8.8    7.6  1012.7  0.00   0.0   0.034   0.000   23.9    51   13.1   24.0   9.35 1.1707    118    1    100.0    5 
26/11/14   0:35    8.6    8.6    8.6    96    8.0   5.0   NNE   0.42   9.0    NE    7.3    8.8    7.6  1012.7  0.00   0.0   0.034   0.000   23.9    51   13.1   24.0   9.35 1.1707    117    1    100.0    5 
26/11/14   0:40    8.6    8.6    8.6    96    8.0   5.0   NNE   0.42   9.0   NNE    7.3    8.8    7.6  1012.7  0.00   0.0   0.034   0.000   23.8    51   13.1   23.9   9.35 1.1709    117    1    100.0    5 
26/11/14   0:45    8.6    8.6    8.6    96    8.0   4.0   NNE   0.33   8.0   NNE    7.7    8.8    7.9  1012.7  0.00   0.0   0.034   0.000   23.8    51   13.1   23.9   9.35 1.1708    117    1    100.0    5 
26/11/14   0:50    8.6    8.6    8.6    96    8.0   6.0   NNE   0.50   9.0   NNE    7.1    8.8    7.3  1012.6  0.00   0.0   0.034   0.000   23.8    51   13.1   23.9   9.35 1.1707    116    1    100.0    5 
26/11/14   0:55    8.6    8.6    8.6    96    8.0   4.0    NE   0.33   8.0    NE    7.8    8.8    8.0  1012.5  0.00   0.0   0.034   0.000   23.8    51   13.0   23.8   9.35 1.1710    117    1    100.0    5 
26/11/14   1:00    8.6    8.6    8.6    96    8.0   4.0   NNE   0.33   7.0    NE    7.8    8.8    8.0  1012.4  0.00   0.0   0.034   0.000   23.8    51   13.0   23.8   9.35 1.1708    117    1    100.0    5 
26/11/14   1:05    8.6    8.7    8.6    96    8.0   4.0   NNE   0.33   7.0   NNE    7.8    8.8    8.0  1012.5  0.00   0.0   0.034   0.000   23.8    51   13.0   23.8   9.35 1.1709    116    1    100.0    5 
26/11/14   1:10    8.6    8.7    8.6    96    8.0   5.0   NNE   0.42   7.0    NE    7.4    8.8    7.6  1012.4  0.00   0.0   0.034   0.000   23.7    51   13.0   23.8   9.36 1.1711    117    1    100.0    5 
26/11/14   1:15    8.6    8.7    8.6    96    8.0   4.0   NNE   0.33   7.0    NE    7.8    8.8    8.0  1012.3  0.00   0.0   0.034   0.000   23.7    51   13.0   23.8   9.36 1.1710    116    1    100.0    5 
26/11/14   1:20    8.6    8.7    8.6    96    8.0   4.0   NNE   0.33   8.0   NNE    7.8    8.8    8.0  1012.3  0.00   0.0   0.034   0.000   23.7    51   13.0   23.8   9.36 1.1709    117    1    100.0    5 
26/11/14   1:25    8.6    8.7    8.6    96    8.0   5.0   NNE   0.42   7.0   NNE    7.4    8.8    7.6  1012.3  0.00   0.0   0.034   0.000   23.7    51   12.9   23.7   9.36 1.1712    117    1    100.0    5 
26/11/14   1:30    8.6    8.7    8.6    96    8.0   4.0   NNE   0.33   7.0    NE    7.8    8.8    8.0  1012.2  0.00   0.0   0.034   0.000   23.7    51   12.9   23.7   9.36 1.1712    117    1    100.0    5 
26/11/14   1:35    8.6    8.6    8.6    96    8.0   5.0   NNE   0.42   7.0    NE    7.4    8.8    7.6  1012.2  0.00   0.0   0.034   0.000   23.6    51   12.9   23.6   9.36 1.1714    118    1    100.0    5 
26/11/14   1:40    8.6    8.6    8.6    96    8.0   5.0   NNE   0.42   8.0   NNE    7.4    8.8    7.6  1012.2  0.00   0.0   0.034   0.000   23.6    51   12.9   23.6   9.36 1.1714    117    1    100.0    5 
26/11/14   1:45    8.6    8.6    8.6    96    8.0   5.0   NNE   0.42   7.0   NNE    7.4    8.8    7.6  1012.1  0.00   0.0   0.034   0.000   23.6    51   12.9   23.6   9.36 1.1712    117    1    100.0    5 
26/11/14   1:50    8.6    8.6    8.6    96    8.0   4.0   NNE   0.33   7.0     N    7.8    8.8    8.0  1012.1  0.00   0.0   0.034   0.000   23.6    50   12.5   23.5   9.25 1.1719    116    1    100.0    5 
26/11/14   1:55    8.6    8.6    8.6    96    8.0   4.0   NNE   0.33   7.0   NNE    7.8    8.8    8.0  1012.0  0.00   0.0   0.034   0.000   23.6    50   12.5   23.5   9.25 1.1718    116    1    100.0    5 
26/11/14   2:00    8.7    8.7    8.6    96    8.1   5.0   NNE   0.42   8.0   NNE    7.4    8.9    7.7  1011.9  0.00   0.0   0.034   0.000   23.6    50   12.5   23.5   9.25 1.1717    117    1    100.0    5 
26/11/14   2:05    8.7    8.7    8.6    96    8.1   5.0   NNE   0.42   8.0   NNE    7.4    8.9    7.7  1011.9  0.00   0.0   0.034   0.000   23.5    50   12.5   23.4   9.25 1.1719    116    1    100.0    5 
26/11/14   2:10    8.7    8.7    8.7    96    8.1   6.0   NNE   0.50   9.0   NNE    7.1    8.9    7.3  1011.8  0.00   0.0   0.034   0.000   23.5    50   12.5   23.4   9.25 1.1719    117    1    100.0    5 
26/11/14   2:15    8.6    8.7    8.6    96    8.0   5.0   NNE   0.42   7.0   NNE    7.4    8.8    7.6  1011.8  0.00   0.0   0.034   0.000   23.4    50   12.4   23.3   9.25 1.1721    117    1    100.0    5 
26/11/14   2:20    8.6    8.7    8.6    96    8.0   5.0   NNE   0.42   8.0   NNE    7.4    8.8    7.6  1011.7  0.00   0.0   0.034   0.000   23.4    50   12.4   23.3   9.25 1.1720    117    1    100.0    5 
26/11/14   2:25    8.6    8.6    8.6    96    8.0   5.0   NNE   0.42   9.0   NNE    7.4    8.8    7.6  1011.7  0.00   0.0   0.034   0.000   23.4    50   12.4   23.3   9.25 1.1719    116    1    100.0    5 
26/11/14   2:30    8.6    8.6    8.6    96    8.0   5.0   NNE   0.42  10.0   NNE    7.3    8.8    7.6  1011.6  0.00   0.0   0.034   0.000   23.4    50   12.4   23.2   9.25 1.1722    117    1    100.0    5 
26/11/14   2:35    8.6    8.6    8.6    96    8.0   4.0    NE   0.33   8.0   NNE    7.7    8.8    7.9  1011.7  0.00   0.0   0.034   0.000   23.3    50   12.3   23.2   9.25 1.1725    117    1    100.0    5 
26/11/14   2:40    8.6    8.6    8.6    96    8.0   4.0   NNE   0.33   7.0   NNE    7.7    8.8    7.9  1011.7  0.00   0.0   0.034   0.000   23.3    50   12.3   23.2   9.25 1.1725    116    1    100.0    5 
26/11/14   2:45    8.6    8.6    8.6    96    8.0   5.0   NNE   0.42   7.0   NNE    7.3    8.8    7.6  1011.6  0.00   0.0   0.034   0.000   23.3    50   12.3   23.2   9.25 1.1724    117    1    100.0    5 
26/11/14   2:50    8.6    8.6    8.6    96    8.0   6.0   NNE   0.50   9.0   NNE    7.0    8.8    7.2  1011.5  0.00   0.0   0.034   0.000   23.3    50   12.3   23.2   9.25 1.1723    117    1    100.0    5 
26/11/14   2:55    8.6    8.6    8.6    96    8.0   4.0   NNE   0.33   8.0   NNE    7.7    8.8    7.9  1011.5  0.00   0.0   0.034   0.000   23.3    50   12.3   23.1   9.25 1.1726    117    1    100.0    5 
26/11/14   3:00    8.6    8.6    8.5    96    8.0   4.0   NNE   0.33   7.0   NNE    7.7    8.8    7.9  1011.5  0.00   0.0   0.034   0.000   23.3    50   12.3   23.1   9.25 1.1726    117    1    100.0    5 
26/11/14   3:05    8.5    8.6    8.5    96    7.9   4.0   NNE   0.33   8.0     N    7.7    8.7    7.9  1011.4  0.00   0.0   0.034   0.000   23.2    50   12.2   23.1   9.25 1.1728    116    1    100.0    5 
26/11/14   3:10    8.6    8.6    8.5    96    8.0   5.0   NNE   0.42   9.0   ENE    7.3    8.8    7.6  1011.4  0.00   0.0   0.034   0.000   23.2    50   12.2   23.1   9.25 1.1727    117    1    100.0    5 
26/11/14   3:15    8.5    8.6    8.5    96    7.9   4.0    NE   0.33   7.0   NNE    7.7    8.7    7.9  1011.3  0.00   0.0   0.034   0.000   23.2    50   12.2   23.1   9.25 1.1727    117    1    100.0    5 
26/11/14   3:20    8.6    8.6    8.5    96    8.0   4.0   NNE   0.33   7.0    NE    7.7    8.8    7.9  1011.3  0.00   0.0   0.034   0.000   23.2    50   12.2   22.9   9.25 1.1729    117    1    100.0    5 
26/11/14   3:25    8.5    8.6    8.5    96    7.9   5.0   NNE   0.42   7.0   NNE    7.3    8.7    7.5  1011.2  0.00   0.0   0.034   0.000   23.2    50   12.2   22.9   9.25 1.1728    116    1    100.0    5 
26/11/14   3:30    8.6    8.6    8.5    96    8.0   6.0   NNE   0.50   8.0   NNE    7.0    8.8    7.2  1011.2  0.00   0.0   0.034   0.000   23.1    50   12.1   22.9   9.25 1.1730    117    1    100.0    5 
26/11/14   3:35    8.6    8.6    8.6    96    8.0   6.0   NNE   0.50   8.0   NNE    7.0    8.8    7.2  1011.1  0.00   0.0   0.034   0.000   23.1    50   12.1   22.9   9.25 1.1730    116    1    100.0    5 
26/11/14   3:40    8.6    8.6    8.6    96    8.0   6.0   NNE   0.50   9.0   NNE    7.0    8.8    7.2  1011.1  0.00   0.0   0.034   0.000   23.1    50   12.1   22.9   9.25 1.1730    117    1    100.0    5 
26/11/14   3:45    8.6    8.6    8.6    96    8.0   7.0   NNE   0.58   9.0   NNE    6.7    8.8    6.9  1011.1  0.00   0.0   0.034   0.000   23.1    50   12.1   22.8   9.25 1.1732    117    1    100.0    5 
26/11/14   3:50    8.6    8.6    8.6    96    8.0   7.0   NNE   0.58  10.0   NNE    6.8    8.8    7.0  1011.1  0.00   0.0   0.034   0.000   23.1    50   12.1   22.8   9.25 1.1732    117    1    100.0    5 
26/11/14   3:55    8.6    8.6    8.6    96    8.0   5.0   NNE   0.42   8.0   NNE    7.3    8.8    7.6  1011.1  0.00   0.0   0.034   0.000   23.1    50   12.1   22.8   9.25 1.1732    116    1    100.0    5 
26/11/14   4:00    8.6    8.6    8.6    96    8.0   5.0   NNE   0.42   9.0   NNE    7.4    8.8    7.6  1011.1  0.00   0.0   0.034   0.000   23.0    50   12.0   22.8   9.25 1.1735    117    1    100.0    5 
26/11/14   4:05    8.6    8.6    8.6    96    8.0   4.0   NNE   0.33   8.0    NE    7.8    8.8    8.0  1011.1  0.00   0.0   0.034   0.000   23.0    50   12.0   22.8   9.25 1.1735    117    1    100.0    5 
26/11/14   4:10    8.6    8.6    8.6    96    8.0   3.0    NE   0.25   6.0    NE    8.2    8.8    8.4  1011.0  0.00   0.0   0.034   0.000   23.0    50   12.0   22.8   9.25 1.1734    117    1    100.0    5 
26/11/14   4:15    8.7    8.7    8.6    96    8.1   3.0    NE   0.25   5.0    NE    8.3    8.9    8.6  1011.0  0.00   0.0   0.034   0.000   22.9    50   12.0   22.7   9.25 1.1737    116    1    100.0    5 
26/11/14   4:20    8.7    8.7    8.7    96    8.1   2.0    NE   0.17   4.0    NE    8.7    8.9    8.9  1011.0  0.00   0.0   0.034   0.000   22.9    50   12.0   22.7   9.25 1.1737    117    1    100.0    5 
26/11/14   4:25    8.7    8.7    8.7    96    8.1   3.0    NE   0.25   6.0    NE    8.3    8.9    8.6  1010.9  0.00   0.0   0.034   0.000   22.9    50   12.0   22.7   9.25 1.1736    116    1    100.0    5 
26/11/14   4:30    8.7    8.7    8.7    96    8.1   4.0   NNE   0.33   6.0   NNE    7.8    8.9    8.1  1010.9  0.00   0.0   0.034   0.000   22.9    50   12.0   22.7   9.25 1.1735    117    1    100.0    5 
26/11/14   4:35    8.7    8.7    8.7    96    8.1   5.0   NNE   0.42   7.0   NNE    7.4    8.9    7.7  1010.9  0.00   0.0   0.034   0.000   22.9    50   11.9   22.6   9.25 1.1738    116    1    100.0    5 
26/11/14   4:40    8.7    8.7    8.7    96    8.1   4.0   NNE   0.33   6.0   NNE    7.8    8.9    8.1  1010.9  0.00   0.0   0.034   0.000   22.9    50   11.9   22.6   9.25 1.1738    117    1    100.0    5 
26/11/14   4:45    8.7    8.7    8.7    96    8.1   5.0   NNE   0.42   9.0    NE    7.4    8.9    7.7  1010.9  0.00   0.0   0.034   0.000   22.9    50   11.9   22.6   9.25 1.1739    118    1    100.0    5 
26/11/14   4:50    8.6    8.7    8.6    96    8.0   5.0   NNE   0.42   8.0   NNE    7.4    8.8    7.6  1010.9  0.00   0.0   0.034   0.000   22.8    50   11.9   22.6   9.25 1.1741    116    1    100.0    5 
26/11/14   4:55    8.7    8.7    8.6    97    8.2   4.0   NNE   0.33   8.0   NNE    7.8    8.9    8.1  1010.8  0.00   0.0   0.034   0.000   22.8    49   11.6   22.5   9.05 1.1743    117    1    100.0    5 
26/11/14   5:00    8.7    8.7    8.7    97    8.2   4.0   NNE   0.33   7.0    NE    7.8    8.9    8.1  1010.9  0.00   0.0   0.034   0.000   22.8    49   11.5   22.4   9.05 1.1747    116    1    100.0    5 
26/11/14   5:05    8.7    8.7    8.7    97    8.2   4.0   NNE   0.33   6.0    NE    7.8    8.9    8.1  1010.9  0.00   0.0   0.034   0.000   22.8    49   11.5   22.4   9.05 1.1747    114    1    100.0    5 
26/11/14   5:10    8.7    8.7    8.7    97    8.2   3.0   NNE   0.25   5.0   NNE    8.3    8.9    8.6  1010.8  0.00   0.0   0.034   0.000   22.8    49   11.5   22.4   9.05 1.1746    117    1    100.0    5 
26/11/14   5:15    8.7    8.7    8.7    97    8.3   3.0   NNE   0.25   5.0   NNE    8.4    9.0    8.7  1010.9  0.00   0.0   0.033   0.000   22.8    49   11.5   22.4   9.05 1.1747    117    1    100.0    5 
26/11/14   5:20    8.7    8.7    8.7    97    8.3   2.0   NNE   0.17   4.0   NNE    8.7    9.0    9.0  1010.8  0.00   0.0   0.033   0.000   22.7    49   11.5   22.4   9.05 1.1748    117    1    100.0    5 
26/11/14   5:25    8.7    8.7    8.7    97    8.3   3.0   NNE   0.25   5.0   NNE    8.4    9.0    8.7  1010.8  0.00   0.0   0.033   0.000   22.7    49   11.5   22.4   9.05 1.1748    117    1    100.0    5 
26/11/14   5:30    8.8    8.8    8.7    97    8.3   4.0   NNE   0.33   6.0   NNE    8.0    9.1    8.3  1010.7  0.00   0.0   0.033   0.000   22.7    49   11.5   22.4   9.05 1.1748    115    1    100.0    5 
26/11/14   5:35    8.8    8.8    8.7    97    8.3   4.0   NNE   0.33   6.0   NNE    8.0    9.1    8.3  1010.7  0.00   0.0   0.033   0.000   22.7    49   11.5   22.4   9.05 1.1747    116    1    100.0    5 
26/11/14   5:40    8.8    8.8    8.8    97    8.3   4.0   NNE   0.33   6.0   NNE    8.0    9.1    8.3  1010.7  0.00   0.0   0.033   0.000   22.7    49   11.4   22.3   9.05 1.1750    117    1    100.0    5 
26/11/14   5:45    8.8    8.8    8.8    97    8.4   4.0    NE   0.33   5.0   NNE    8.1    9.1    8.3  1010.6  0.00   0.0   0.033   0.000   22.7    49   11.4   22.3   9.05 1.1749    117    1    100.0    5 
26/11/14   5:50    8.8    8.8    8.8    97    8.4   3.0    NE   0.25   5.0    NE    8.5    9.1    8.8  1010.6  0.00   0.0   0.033   0.000   22.6    49   11.4   22.2   9.05 1.1752    118    1    100.0    5 
26/11/14   5:55    8.8    8.9    8.8    97    8.4   3.0   NNE   0.25   6.0   NNE    8.5    9.1    8.8  1010.6  0.00   0.0   0.033   0.000   22.6    49   11.4   22.2   9.05 1.1752    117    1    100.0    5 
26/11/14   6:00    8.9    8.9    8.8    97    8.4   4.0   NNE   0.33   6.0   NNE    8.1    9.2    8.4  1010.6  0.00   0.0   0.033   0.000   22.6    49   11.4   22.2   9.05 1.1752    117    1    100.0    5 
26/11/14   6:05    8.9    8.9    8.9    97    8.5   4.0   NNE   0.33   7.0   NNE    8.2    9.2    8.4  1010.6  0.00   0.0   0.033   0.000   22.6    49   11.3   22.2   9.05 1.1754    117    1    100.0    5 
26/11/14   6:10    8.9    8.9    8.9    96    8.3   3.0   NNE   0.25   6.0   NNE    8.6    9.2    8.8  1010.6  0.00   0.0   0.033   0.000   22.6    49   11.3   22.2   9.05 1.1754    117    1    100.0    5 
26/11/14   6:15    8.9    8.9    8.9    96    8.3   4.0   NNE   0.33   6.0     N    8.2    9.2    8.4  1010.5  0.00   0.0   0.033   0.000   22.6    49   11.3   22.2   9.05 1.1754    116    1    100.0    5 
26/11/14   6:20    8.9    8.9    8.9    96    8.3   5.0   NNE   0.42   7.0   NNE    7.7    9.1    7.9  1010.5  0.00   0.0   0.033   0.000   22.6    49   11.3   22.2   9.05 1.1753    117    1    100.0    5 
26/11/14   6:25    8.9    8.9    8.9    96    8.3   4.0   NNE   0.33   6.0   NNE    8.1    9.1    8.3  1010.4  0.00   0.0   0.033   0.000   22.5    49   11.2   22.1   9.05 1.1755    117    1    100.0    5 
26/11/14   6:30    8.9    8.9    8.9    96    8.3   5.0   NNE   0.42   7.0   NNE    7.7    9.1    7.9  1010.4  0.00   0.0   0.033   0.000   22.5    49   11.2   22.1   9.05 1.1755    117    1    100.0    5 
26/11/14   6:35    8.9    8.9    8.9    97    8.5   5.0   NNE   0.42   7.0   NNE    7.8    9.2    8.1  1010.4  0.00   0.0   0.033   0.000   22.5    49   11.2   22.1   9.05 1.1755    114    1    100.0    5 
26/11/14   6:40    8.9    8.9    8.9    97    8.5   4.0   NNE   0.33   6.0    NE    8.2    9.2    8.4  1010.4  0.00   0.0   0.033   0.000   22.5    49   11.2   22.1   9.05 1.1755    117    1    100.0    5 
26/11/14   6:45    8.9    8.9    8.9    97    8.5   5.0   NNE   0.42   7.0   NNE    7.8    9.2    8.1  1010.4  0.00   0.0   0.033   0.000   22.4    49   11.2   22.0   9.05 1.1758    117    1    100.0    5 
26/11/14   6:50    8.9    8.9    8.9    97    8.5   5.0   NNE   0.42   7.0   NNE    7.8    9.2    8.1  1010.4  0.00   0.0   0.033   0.000   22.4    49   11.2   22.0   9.05 1.1757    117    1    100.0    5 
26/11/14   6:55    8.9    8.9    8.9    97    8.5   5.0   NNE   0.42   8.0   NNE    7.8    9.2    8.1  1010.4  0.00   0.0   0.033   0.000   22.4    49   11.2   22.0   9.05 1.1757    118    1    100.0    5 
26/11/14   7:00    8.9    8.9    8.9    97    8.5   5.0   NNE   0.42   7.0     N    7.8    9.2    8.1  1010.4  0.00   0.0   0.033   0.000   22.4    49   11.2   22.0   9.05 1.1757    116    1    100.0    5 
26/11/14   7:05    8.9    8.9    8.9    97    8.5   5.0   NNE   0.42   7.0   NNE    7.8    9.2    8.1  1010.4  0.00   0.0   0.033   0.000   22.4    49   11.2   22.0   9.05 1.1757    117    1    100.0    5 
26/11/14   7:10    8.9    8.9    8.9    97    8.5   5.0   NNE   0.42   8.0   NNE    7.8    9.2    8.1  1010.4  0.00   0.0   0.033   0.000   22.4    49   11.2   22.0   9.05 1.1757    117    1    100.0    5 
26/11/14   7:15    8.9    8.9    8.9    97    8.5   5.0   NNE   0.42   8.0   NNE    7.8    9.2    8.1  1010.4  0.00   0.0   0.033   0.000   22.4    49   11.2   22.0   9.05 1.1757    117    1    100.0    5 
26/11/14   7:20    8.9    8.9    8.9    97    8.5   5.0   NNE   0.42   8.0   NNE    7.8    9.2    8.1  1010.3  0.00   0.0   0.033   0.000   22.4    49   11.2   22.0   9.05 1.1757    116    1    100.0    5 
26/11/14   7:25    8.9    9.0    8.9    97    8.5   5.0   NNE   0.42   7.0   NNE    7.8    9.2    8.1  1010.4  0.00   0.0   0.033   0.000   22.4    49   11.2   22.0   9.05 1.1757    116    1    100.0    5 
26/11/14   7:30    8.9    9.0    8.9    97    8.5   4.0     N   0.33   6.0   NNE    8.2    9.2    8.4  1010.4  0.00   0.0   0.033   0.000   22.4    50   11.5   22.1   9.25 1.1754    117    1    100.0    5 
26/11/14   7:35    9.0    9.0    8.9    97    8.5   4.0   NNE   0.33   7.0   NNE    8.2    9.3    8.5  1010.4  0.00   0.0   0.032   0.000   22.4    50   11.5   22.1   9.25 1.1754    117    1    100.0    5 
26/11/14   7:40    8.9    9.0    8.9    97    8.5   4.0     N   0.33   6.0   NNE    8.2    9.2    8.4  1010.4  0.00   0.0   0.033   0.000   22.5    50   11.6   22.1   9.25 1.1751    117    1    100.0    5 
26/11/14   7:45    8.9    8.9    8.9    97    8.5   3.0   NNE   0.25   5.0     N    8.6    9.2    8.9  1010.3  0.00   0.0   0.033   0.000   22.5    50   11.6   22.1   9.25 1.1751    113    1     99.1    5 
26/11/14   7:50    8.9    8.9    8.9    97    8.5   4.0   NNE   0.33   6.0   NNE    8.2    9.2    8.4  1010.4  0.00   0.0   0.033   0.000   22.5    50   11.6   22.1   9.25 1.1751    117    1    100.0    5 
26/11/14   7:55    8.9    8.9    8.9    97    8.5   4.0   NNE   0.33   6.0   NNE    8.2    9.2    8.4  1010.5  0.00   0.0   0.033   0.000   22.5    50   11.6   22.1   9.25 1.1753    116    1    100.0    5 
26/11/14   8:00    8.9    8.9    8.9    97    8.5   4.0   NNE   0.33   6.0   NNE    8.2    9.2    8.4  1010.5  0.00   0.0   0.033   0.000   22.6    50   11.6   22.2   9.25 1.1750    118    1    100.0    5 
26/11/14   8:05    8.9    9.0    8.9    97    8.5   4.0   NNE   0.33   5.0   NNE    8.2    9.2    8.4  1010.5  0.00   0.0   0.033   0.000   22.6    50   11.6   22.2   9.25 1.1750    117    1    100.0    5 
26/11/14   8:10    8.9    9.0    8.9    97    8.5   4.0     N   0.33   7.0   NNE    8.2    9.2    8.4  1010.6  0.00   0.0   0.033   0.000   22.6    50   11.6   22.2   9.25 1.1751    117    1    100.0    5 
26/11/14   8:15    9.0    9.0    8.9    97    8.5   4.0   NNE   0.33   6.0   NNE    8.2    9.3    8.5  1010.5  0.00   0.0   0.032   0.000   22.6    50   11.6   22.2   9.25 1.1750    117    1    100.0    5 
26/11/14   8:20    9.0    9.0    8.9    97    8.5   4.0   NNE   0.33   7.0   NNE    8.2    9.3    8.5  1010.5  0.00   0.0   0.032   0.000   22.6    50   11.7   22.3   9.25 1.1747    116    1    100.0    5 
26/11/14   8:25    9.0    9.0    8.9    97    8.5   4.0   NNE   0.33   6.0     N    8.2    9.3    8.5  1010.5  0.00   0.0   0.032   0.000   22.6    50   11.7   22.3   9.25 1.1747    116    1    100.0    5 
26/11/14   8:30    9.0    9.0    8.9    97    8.5   4.0     N   0.33   6.0     N    8.2    9.3    8.5  1010.4  0.00   0.0   0.032   0.000   22.7    50   11.7   22.3   9.25 1.1744    117    1    100.0    5 
26/11/14   8:35    9.0    9.0    9.0    97    8.5   5.0   NNE   0.42   7.0   NNE    7.8    9.3    8.1  1010.5  0.00   0.0   0.032   0.000   22.7    50   11.7   22.3   9.25 1.1744    117    1    100.0    5 
26/11/14   8:40    9.0    9.0    9.0    97    8.5   4.0   NNE   0.33   6.0   NNE    8.2    9.3    8.5  1010.4  0.00   0.0   0.032   0.000   22.7    50   11.8   22.4   9.25 1.1741    115    1    100.0    5 
26/11/14   8:45    9.1    9.1    9.0    97    8.6   4.0   NNE   0.33   6.0     N    8.3    9.3    8.6  1010.4  0.00   0.0   0.032   0.000   22.7    51   12.1   22.5   9.39 1.1738    117    1    100.0    5 
26/11/14   8:50    9.1    9.1    9.1    97    8.6   3.0   NNE   0.25   5.0   NNE    8.7    9.3    9.0  1010.5  0.00   0.0   0.032   0.000   22.8    51   12.1   22.6   9.39 1.1735    116    1    100.0    5 
26/11/14   8:55    9.1    9.1    9.1    97    8.7   4.0   NNE   0.33   6.0   NNE    8.3    9.4    8.6  1010.5  0.00   0.0   0.032   0.000   22.8    51   12.1   22.6   9.39 1.1736    117    1    100.0    5 
26/11/14   9:00    9.1    9.1    9.1    97    8.7   4.0   NNE   0.33   6.0   NNE    8.3    9.4    8.6  1010.5  0.00   0.0   0.032   0.000   22.8    51   12.2   22.6   9.39 1.1733    117    1    100.0    5 
26/11/14   9:05    9.2    9.2    9.1    97    8.7   4.0   NNE   0.33   6.0     N    8.4    9.4    8.7  1010.4  0.00   0.0   0.032   0.000   22.8    51   12.2   22.6   9.39 1.1732    117    1    100.0    5 
26/11/14   9:10    9.2    9.2    9.2    97    8.7   3.0   NNE   0.25   6.0   NNE    8.9    9.4    9.2  1010.5  0.00   0.0   0.032   0.000   22.8    51   12.2   22.6   9.39 1.1733    117    1    100.0    5 
26/11/14   9:15    9.2    9.2    9.2    97    8.7   3.0   NNE   0.25   6.0   NNE    8.9    9.4    9.2  1010.4  0.00   0.0   0.032   0.000   22.9    51   12.2   22.7   9.39 1.1729    116    1    100.0    5 
26/11/14   9:20    9.2    9.2    9.2    97    8.8   3.0   NNE   0.25   5.0   NNE    8.9    9.5    9.2  1010.5  0.00   0.0   0.032   0.000   22.9    51   12.3   22.8   9.38 1.1727    117    1    100.0    5 
26/11/14   9:25    9.2    9.2    9.2    97    8.8   3.0     N   0.25   5.0   NNE    8.9    9.5    9.2  1010.5  0.00   0.0   0.032   0.000   22.9    51   12.3   22.8   9.38 1.1727    117    1    100.0    5 
26/11/14   9:30    9.2    9.2    9.2    97    8.8   4.0     N   0.33   6.0     N    8.5    9.5    8.8  1010.5  0.00   0.0   0.032   0.000   22.9    51   12.3   22.8   9.38 1.1727    116    1    100.0    5 
26/11/14   9:35    9.3    9.3    9.2    97    8.8   4.0   NNE   0.33   5.0   NNE    8.6    9.6    8.8  1010.5  0.00   0.0   0.031   0.000   23.0    51   12.3   22.8   9.38 1.1725    115    1    100.0    5 
26/11/14   9:40    9.3    9.3    9.3    97    8.8   3.0   NNE   0.25   5.0   NNE    9.0    9.6    9.3  1010.5  0.00   0.0   0.031   0.000   23.1    52   12.7   22.9   9.58 1.1719    115    1    100.0    5 
26/11/14   9:45    9.3    9.3    9.3    97    8.9   3.0   NNE   0.25   6.0   NNE    9.1    9.6    9.3  1010.4  0.00   0.0   0.031   0.000   23.1    52   12.7   23.0   9.58 1.1715    115    1    100.0    5 
26/11/14   9:50    9.3    9.3    9.3    97    8.9   4.0   NNE   0.33   6.0   NNE    8.6    9.6    8.9  1010.5  0.00   0.0   0.031   0.000   23.1    52   12.7   23.0   9.58 1.1715    117    1    100.0    5 
26/11/14   9:55    9.4    9.4    9.3    97    8.9   4.0   NNE   0.33   6.0   NNE    8.7    9.7    8.9  1010.4  0.00   0.0   0.031   0.000   23.2    52   12.8   23.1   9.58 1.1712    115    1    100.0    5 
26/11/14  10:00    9.4    9.4    9.4    97    9.0   4.0   NNE   0.33   6.0   NNE    8.7    9.7    9.0  1010.3  0.00   0.0   0.031   0.000   23.2    51   12.5   23.0   9.38 1.1714    117    1    100.0    5 
26/11/14  10:05    9.5    9.5    9.4    97    9.0   4.0   NNE   0.33   7.0   NNE    8.8    9.8    9.1  1010.4  0.00   0.0   0.031   0.000   23.2    51   12.5   23.0   9.38 1.1715    118    1    100.0    5 
26/11/14  10:10    9.6    9.6    9.5    97    9.1   3.0   NNE   0.25   5.0   NNE    9.3    9.8    9.6  1010.3  0.00   0.0   0.030   0.000   23.2    51   12.5   23.0   9.38 1.1714    115    1    100.0    5 
26/11/14  10:15    9.6    9.6    9.6    97    9.2   3.0   NNE   0.25   5.0   NNE    9.4    9.9    9.7  1010.3  0.00   0.0   0.030   0.000   23.2    51   12.5   23.0   9.38 1.1714    116    1    100.0    5 
26/11/14  10:20    9.6    9.6    9.6    97    9.2   4.0   NNE   0.33   6.0   NNE    8.9    9.9    9.3  1010.3  0.00   0.0   0.030   0.000   23.2    51   12.5   23.0   9.38 1.1714    117    1    100.0    5 
26/11/14  10:25    9.7    9.7    9.6    97    9.2   3.0   NNE   0.25   5.0   NNE    9.4   10.0    9.8  1010.2  0.00   0.0   0.030   0.000   23.2    51   12.5   23.0   9.38 1.1713    117    1    100.0    5 
26/11/14  10:30    9.7    9.7    9.7    97    9.2   3.0     N   0.25   6.0     N    9.4   10.0    9.8  1010.2  0.00   0.0   0.030   0.000   23.2    51   12.5   23.0   9.38 1.1712    117    1    100.0    5 
26/11/14  10:35    9.7    9.7    9.7    97    9.3   3.0     N   0.25   5.0     N    9.5   10.1    9.8  1010.1  0.00   0.0   0.030   0.000   23.2    51   12.5   23.0   9.38 1.1712    117    1    100.0    5 
26/11/14  10:40    9.7    9.7    9.7    97    9.3   3.0     N   0.25   5.0     N    9.5   10.1    9.8  1010.2  0.00   0.0   0.030   0.000   23.2    51   12.5   23.0   9.38 1.1712    117    1    100.0    5 
26/11/14  10:45    9.7    9.7    9.7    97    9.3   3.0     N   0.25   5.0     N    9.5   10.1    9.8  1010.1  0.00   0.0   0.030   0.000   23.1    51   12.4   22.9   9.38 1.1715    117    1    100.0    5 
26/11/14  10:50    9.8    9.8    9.7    97    9.3   4.0     N   0.33   5.0     N    9.1   10.1    9.4  1010.1  0.00   0.0   0.030   0.000   23.2    51   12.5   23.0   9.38 1.1712    117    1    100.0    5 
26/11/14  10:55    9.8    9.8    9.7    97    9.3   2.0     N   0.17   5.0     N    9.8   10.1   10.1  1010.1  0.00   0.0   0.030   0.000   23.1    51   12.4   22.9   9.38 1.1714    116    1    100.0    5 
26/11/14  11:00    9.8    9.8    9.7    97    9.3   2.0     N   0.17   4.0     N    9.8   10.1   10.1  1010.1  0.00   0.0   0.030   0.000   23.2    52   12.8   23.1   9.58 1.1708    117    1    100.0    5 
26/11/14  11:05    9.8    9.8    9.8    97    9.3   2.0     N   0.17   4.0     N    9.8   10.1   10.1  1010.0  0.00   0.0   0.030   0.000   23.2    51   12.5   23.0   9.38 1.1711    117    1    100.0    5 
26/11/14  11:10    9.8    9.8    9.8    97    9.3   2.0     N   0.17   4.0     N    9.8   10.1   10.1  1010.0  0.00   0.0   0.030   0.000   23.2    52   12.8   23.1   9.58 1.1707    118    1    100.0    5 
26/11/14  11:15    9.8    9.8    9.8    97    9.3   2.0     N   0.17   5.0     N    9.8   10.1   10.1  1009.9  0.00   0.0   0.030   0.000   23.2    52   12.8   23.2   9.57 1.1703    116    1    100.0    5 
26/11/14  11:20    9.8    9.8    9.8    97    9.4   2.0     N   0.17   4.0     N    9.8   10.2   10.2  1009.9  0.00   0.0   0.030   0.000   23.2    53   13.1   23.2   9.70 1.1699    117    1    100.0    5 
26/11/14  11:25    9.8    9.9    9.8    97    9.4   3.0     N   0.25   6.0     N    9.6   10.2    9.9  1009.8  0.00   0.0   0.030   0.000   23.3    53   13.2   23.3   9.69 1.1696    117    1    100.0    5 
26/11/14  11:30    9.9    9.9    9.9    97    9.5   3.0     N   0.25   5.0     N    9.8   10.3   10.1  1009.7  0.00   0.0   0.029   0.000   23.3    53   13.2   23.3   9.69 1.1695    117    1    100.0    5 
26/11/14  11:35   10.0   10.0    9.9    97    9.5   3.0     N   0.25   5.0     N    9.8   10.3   10.2  1009.6  0.00   0.0   0.029   0.000   23.3    53   13.2   23.3   9.69 1.1691    116    1    100.0    5 
26/11/14  11:40   10.1   10.1   10.0    97    9.6   3.0   NNE   0.25   5.0   NNE    9.9   10.4   10.2  1009.6  0.00   0.0   0.029   0.000   23.3    53   13.2   23.3   9.69 1.1690    117    1    100.0    5 
26/11/14  11:45   10.1   10.1   10.1    97    9.7   3.0   NNE   0.25   5.0   NNE    9.9   10.4   10.3  1009.5  0.00   0.0   0.029   0.000   23.4    53   13.3   23.4   9.69 1.1687    117    1    100.0    5 
26/11/14  11:50   10.2   10.2   10.1    97    9.7   3.0   NNE   0.25   5.0   NNE   10.0   10.5   10.3  1009.4  0.00   0.0   0.028   0.000   23.4    52   13.0   23.4   9.57 1.1686    116    1    100.0    5 
26/11/14  11:55   10.2   10.2   10.2    97    9.8   3.0   NNE   0.25   5.0   NNE   10.1   10.5   10.3  1009.4  0.00   0.0   0.028   0.000   23.4    52   13.0   23.4   9.57 1.1686    117    1    100.0    5 
26/11/14  12:00   10.3   10.3   10.2    97    9.8   3.0   NNE   0.25   5.0    NE   10.2   10.6   10.4  1009.4  0.00   0.0   0.028   0.000   23.5    53   13.4   23.6   9.68 1.1679    117    1    100.0    5 
26/11/14  12:05   10.3   10.3   10.3    97    9.9   4.0   NNE   0.33   6.0   NNE    9.8   10.6   10.1  1009.3  0.00   0.0   0.028   0.000   23.5    53   13.4   23.6   9.68 1.1679    116    1    100.0    5 
26/11/14  12:10   10.3   10.3   10.3    97    9.9   5.0   NNE   0.42   7.0   NNE    9.4   10.6    9.7  1009.2  0.00   0.0   0.028   0.000   23.6    53   13.4   23.6   9.67 1.1675    116    1    100.0    5 
26/11/14  12:15   10.3   10.3   10.3    97    9.8   4.0   NNE   0.33   7.0   NNE    9.7   10.6   10.0  1009.2  0.00   0.0   0.028   0.000   23.6    53   13.5   23.7   9.67 1.1672    118    1    100.0    5 
26/11/14  12:20   10.2   10.3   10.2    97    9.8   4.0   NNE   0.33   6.0     N    9.6   10.5    9.9  1009.1  0.00   0.0   0.028   0.000   23.6    53   13.5   23.7   9.67 1.1671    114    1    100.0    5 
26/11/14  12:25   10.2   10.2   10.2    97    9.8   3.0   NNE   0.25   5.0   NNE   10.1   10.5   10.3  1009.0  0.00   0.0   0.028   0.000   23.7    53   13.5   23.8   9.67 1.1667    116    1    100.0    5 
26/11/14  12:30   10.2   10.2   10.2    97    9.8   4.0   NNE   0.33   6.0   NNE    9.6   10.5    9.9  1009.0  0.00   0.0   0.028   0.000   23.7    53   13.5   23.8   9.67 1.1667    117    1    100.0    5 
26/11/14  12:35   10.2   10.2   10.2    97    9.8   5.0   NNE   0.42   7.0   NNE    9.3   10.5    9.6  1009.0  0.00   0.0   0.028   0.000   23.7    53   13.6   23.8   9.66 1.1665    117    1    100.0    5 
26/11/14  12:40   10.2   10.2   10.2    97    9.7   4.0   NNE   0.33   7.0   NNE    9.6   10.5    9.9  1009.0  0.00   0.0   0.028   0.000   23.7    53   13.6   23.8   9.66 1.1665    117    1    100.0    5 
26/11/14  12:45   10.2   10.2   10.2    97    9.7   4.0   NNE   0.33   6.0   NNE    9.6   10.5    9.9  1009.0  0.00   0.0   0.028   0.000   23.8    53   13.6   23.9   9.66 1.1661    117    1    100.0    5 
26/11/14  12:50   10.2   10.2   10.2    97    9.8   5.0   NNE   0.42   6.0   NNE    9.3   10.5    9.6  1008.9  0.00   0.0   0.028   0.000   23.8    53   13.6   23.9   9.66 1.1660    116    1    100.0    5 
26/11/14  12:55   10.2   10.2   10.2    97    9.8   4.0   NNE   0.33   7.0   NNE    9.6   10.5    9.9  1008.9  0.00   0.0   0.028   0.000   23.8    53   13.7   24.0   9.65 1.1657    116    1    100.0    5 
26/11/14  13:00   10.3   10.3   10.2    97    9.8   3.0   NNE   0.25   5.0   NNE   10.2   10.6   10.4  1008.9  0.00   0.0   0.028   0.000   23.9    53   13.7   24.1   9.65 1.1655    117    1    100.0    5 
26/11/14  13:05   10.3   10.3   10.3    97    9.8   3.0   NNE   0.25   6.0     N   10.2   10.6   10.4  1008.9  0.00   0.0   0.028   0.000   23.9    53   13.8   24.1   9.65 1.1651    116    1    100.0    5 
26/11/14  13:10   10.3   10.3   10.3    97    9.8   4.0   NNE   0.33   6.0   NNE    9.7   10.6   10.0  1008.8  0.00   0.0   0.028   0.000   23.9    53   13.8   24.1   9.65 1.1651    116    1    100.0    5 
26/11/14  13:15   10.3   10.3   10.3    97    9.8   4.0   NNE   0.33   7.0     N    9.7   10.6   10.0  1008.8  0.00   0.0   0.028   0.000   24.0    53   13.8   24.2   9.65 1.1647    117    1    100.0    5 
26/11/14  13:20   10.3   10.3   10.3    97    9.8   3.0   NNE   0.25   6.0     N   10.2   10.6   10.4  1008.8  0.00   0.0   0.028   0.000   24.0    53   13.8   24.2   9.65 1.1648    118    1    100.0    5 
26/11/14  13:25   10.3   10.3   10.3    97    9.8   2.0   NNE   0.17   5.0   NNE   10.3   10.6   10.6  1008.7  0.00   0.0   0.028   0.000   24.1    53   13.9   24.2   9.65 1.1644    117    1    100.0    5 
26/11/14  13:30   10.3   10.3   10.3    97    9.8   3.0     N   0.25   5.0   NNE   10.2   10.6   10.4  1008.7  0.00   0.0   0.028   0.000   24.1    52   13.6   24.2   9.54 1.1647    117    1    100.0    5 
26/11/14  13:35   10.3   10.3   10.3    97    9.8   3.0     N   0.25   5.0     N   10.2   10.6   10.4  1008.6  0.00   0.0   0.028   0.000   24.1    53   13.9   24.2   9.65 1.1643    117    1    100.0    5 
26/11/14  13:40   10.3   10.3   10.3    97    9.8   4.0   NNE   0.33   5.0   NNE    9.7   10.6   10.0  1008.6  0.00   0.0   0.028   0.000   24.1    53   13.9   24.3   9.65 1.1640    116    1    100.0    5 
26/11/14  13:45   10.3   10.3   10.3    97    9.8   3.0   NNE   0.25   5.0   NNE   10.2   10.6   10.4  1008.5  0.00   0.0   0.028   0.000   24.1    53   13.9   24.3   9.65 1.1639    117    1    100.0    5 
26/11/14  13:50   10.3   10.3   10.3    97    9.8   3.0   NNE   0.25   7.0   NNE   10.2   10.6   10.4  1008.6  0.00   0.0   0.028   0.000   24.2    53   14.0   24.3   9.65 1.1637    116    1    100.0    5 
26/11/14  13:55   10.3   10.3   10.3    97    9.8   4.0   NNE   0.33   7.0   NNE    9.7   10.6   10.0  1008.5  0.00   0.0   0.028   0.000   24.2    52   13.7   24.3   9.54 1.1639    116    1    100.0    5 
26/11/14  14:00   10.3   10.3   10.3    97    9.8   3.0   NNE   0.25   6.0   NNE   10.2   10.6   10.4  1008.4  0.00   0.0   0.028   0.000   24.1    52   13.6   24.2   9.54 1.1641    115    1    100.0    5 
26/11/14  14:05   10.3   10.3   10.3    97    9.8   3.0   NNE   0.25   6.0   NNE   10.2   10.6   10.4  1008.3  0.00   0.0   0.028   0.000   24.1    52   13.6   24.2   9.54 1.1640    116    1    100.0    5 
26/11/14  14:10   10.3   10.3   10.3    97    9.8   3.0   NNE   0.25   5.0   NNE   10.2   10.6   10.4  1008.3  0.00   0.0   0.028   0.000   24.1    52   13.6   24.2   9.54 1.1640    117    1    100.0    5 
26/11/14  14:15   10.3   10.3   10.3    97    9.8   2.0   NNE   0.17   5.0   NNE   10.3   10.6   10.6  1008.3  0.00   0.0   0.028   0.000   24.2    52   13.7   24.3   9.54 1.1637    116    1    100.0    5 
26/11/14  14:20   10.2   10.3   10.2    97    9.8   2.0   NNE   0.17   5.0     N   10.2   10.5   10.5  1008.3  0.00   0.0   0.028   0.000   24.2    52   13.7   24.3   9.54 1.1637    118    1    100.0    5 
26/11/14  14:25   10.3   10.3   10.2    97    9.8   3.0     N   0.25   6.0     N   10.2   10.6   10.4  1008.3  0.00   0.0   0.028   0.000   24.2    52   13.7   24.3   9.54 1.1637    115    1    100.0    5 
26/11/14  14:30   10.2   10.3   10.2    97    9.8   4.0   NNE   0.33   7.0     N    9.6   10.5    9.9  1008.3  0.00   0.0   0.028   0.000   24.2    51   13.4   24.2   9.35 1.1640    117    1    100.0    5 
26/11/14  14:35   10.2   10.2   10.2    97    9.7   4.0     N   0.33   6.0     N    9.6   10.5    9.9  1008.2  0.00   0.0   0.028   0.000   24.2    51   13.4   24.2   9.35 1.1640    117    1    100.0    5 
26/11/14  14:40   10.2   10.2   10.2    97    9.7   3.0   NNE   0.25   5.0   NNE   10.0   10.5   10.3  1008.3  0.00   0.0   0.028   0.000   24.2    51   13.4   24.2   9.35 1.1640    117    1    100.0    5 
26/11/14  14:45   10.2   10.2   10.2    97    9.7   4.0   NNE   0.33   6.0   NNE    9.6   10.5    9.9  1008.2  0.00   0.0   0.028   0.000   24.2    51   13.4   24.2   9.35 1.1639    116    1    100.0    5 
26/11/14  14:50   10.2   10.2   10.1    97    9.7   3.0   NNE   0.25   6.0     N   10.0   10.5   10.3  1008.1  0.00   0.0   0.028   0.000   24.2    51   13.4   24.2   9.35 1.1639    115    1    100.0    5 
26/11/14  14:55   10.1   10.2   10.1    97    9.7   3.0     N   0.25   5.0   NNE    9.9   10.4   10.3  1008.1  0.00   0.0   0.029   0.000   24.2    51   13.4   24.2   9.35 1.1638    117    1    100.0    5 
26/11/14  15:00   10.2   10.2   10.2    97    9.7   3.0   NNE   0.25   5.0   NNE   10.0   10.5   10.3  1008.1  0.00   0.0   0.028   0.000   24.2    51   13.4   24.2   9.35 1.1639    117    1    100.0    5 
26/11/14  15:05   10.2   10.2   10.2    97    9.7   3.0   NNE   0.25   5.0   NNE   10.0   10.5   10.3  1008.0  0.00   0.0   0.028   0.000   24.1    52   13.6   24.2   9.54 1.1637    116    1    100.0    5 
26/11/14  15:10   10.2   10.2   10.2    97    9.7   4.0     N   0.33   6.0     N    9.6   10.5    9.9  1008.0  0.00   0.0   0.028   0.000   24.2    52   13.7   24.3   9.54 1.1634    117    1    100.0    5 
26/11/14  15:15   10.2   10.2   10.2    97    9.7   5.0   NNE   0.42   8.0   NNE    9.2   10.5    9.6  1007.9  0.00   0.0   0.028   0.000   24.2    52   13.7   24.3   9.54 1.1633    116    1    100.0    5 
26/11/14  15:20   10.1   10.2   10.1    97    9.7   3.0   NNE   0.25   7.0   NNE    9.9   10.4   10.3  1008.0  0.00   0.0   0.029   0.000   24.2    52   13.7   24.3   9.54 1.1633    117    1    100.0    5 
26/11/14  15:25   10.1   10.2   10.1    97    9.7   3.0   NNE   0.25   5.0   NNE    9.9   10.4   10.3  1008.0  0.00   0.0   0.029   0.000   24.2    52   13.7   24.3   9.54 1.1633    117    1    100.0    5 
26/11/14  15:30   10.1   10.1   10.1    97    9.7   4.0   NNE   0.33   6.0   NNE    9.5   10.4    9.8  1008.0  0.00   0.0   0.029   0.000   24.2    52   13.7   24.3   9.54 1.1633    117    1    100.0    5 
26/11/14  15:35   10.1   10.1   10.1    97    9.7   3.0   NNE   0.25   5.0   NNE    9.9   10.4   10.3  1008.0  0.00   0.0   0.029   0.000   24.2    52   13.7   24.3   9.54 1.1633    117    1    100.0    5 
26/11/14  15:40   10.1   10.1   10.1    97    9.7   4.0   NNE   0.33   5.0   NNE    9.5   10.4    9.8  1008.0  0.00   0.0   0.029   0.000   24.2    52   13.7   24.3   9.54 1.1633    116    1    100.0    5 
26/11/14  15:45   10.1   10.1   10.1    97    9.7   3.0   NNE   0.25   5.0   NNE    9.9   10.4   10.3  1008.0  0.00   0.0   0.029   0.000   24.2    51   13.4   24.2   9.35 1.1637    117    1    100.0    5 
26/11/14  15:50   10.1   10.2   10.1    97    9.7   3.0   NNE   0.25   4.0   NNE    9.9   10.4   10.3  1008.0  0.00   0.0   0.029   0.000   24.2    51   13.4   24.2   9.35 1.1637    117    1    100.0    5 
26/11/14  15:55   10.1   10.1   10.1    97    9.7   3.0   NNE   0.25   5.0   NNE    9.9   10.4   10.3  1008.0  0.00   0.0   0.029   0.000   24.2    51   13.4   24.2   9.35 1.1637    116    1    100.0    5 
26/11/14  16:00   10.1   10.1   10.1    97    9.7   2.0   NNE   0.17   4.0   NNE   10.1   10.4   10.4  1008.0  0.00   0.0   0.029   0.000   24.2    51   13.4   24.2   9.35 1.1637    117    1    100.0    5 
26/11/14  16:05   10.1   10.1   10.1    97    9.7   2.0   NNE   0.17   5.0   NNE   10.1   10.4   10.4  1008.0  0.00   0.0   0.029   0.000   24.2    51   13.4   24.2   9.35 1.1637    116    1    100.0    5 
26/11/14  16:10   10.1   10.2   10.1    97    9.7   3.0   NNE   0.25   5.0   NNE    9.9   10.4   10.3  1008.0  0.00   0.0   0.029   0.000   24.2    51   13.4   24.2   9.35 1.1637    116    1    100.0    5 
26/11/14  16:15   10.1   10.1   10.1    97    9.7   4.0   NNE   0.33   6.0   NNE    9.5   10.4    9.8  1008.0  0.00   0.0   0.029   0.000   24.2    51   13.4   24.2   9.35 1.1637    117    1    100.0    5 
26/11/14  16:20   10.1   10.1   10.1    97    9.7   3.0     N   0.25   5.0     N    9.9   10.4   10.3  1007.9  0.00   0.0   0.029   0.000   24.2    51   13.4   24.2   9.35 1.1636    116    1    100.0    5 
26/11/14  16:25   10.1   10.1   10.1    97    9.7   3.0   NNE   0.25   6.0   NNE    9.9   10.4   10.3  1008.0  0.00   0.0   0.029   0.000   24.1    51   13.3   24.2   9.35 1.1640    117    1    100.0    5 
26/11/14  16:30   10.1   10.1   10.1    97    9.6   4.0   NNE   0.33   5.0   NNE    9.4   10.4    9.8  1007.9  0.00   0.0   0.029   0.000   24.1    51   13.3   24.2   9.35 1.1639    117    1    100.0    5 
26/11/14  16:35   10.1   10.1   10.1    97    9.7   3.0   NNE   0.25   5.0   NNE    9.9   10.4   10.3  1007.9  0.00   0.0   0.029   0.000   24.1    51   13.3   24.2   9.35 1.1639    115    1    100.0    5 
26/11/14  16:40   10.1   10.1   10.1    97    9.7   4.0   NNE   0.33   6.0   NNE    9.5   10.4    9.8  1007.9  0.00   0.0   0.029   0.000   24.2    51   13.4   24.2   9.35 1.1636    117    1    100.0    5 
26/11/14  16:45   10.1   10.1   10.1    97    9.7   4.0   NNE   0.33   5.0   NNE    9.5   10.4    9.8  1008.0  0.00   0.0   0.029   0.000   24.1    51   13.3   24.2   9.35 1.1640    116    1    100.0    5 
26/11/14  16:50   10.1   10.1   10.1    97    9.7   3.0     N   0.25   5.0     N    9.9   10.4   10.3  1007.9  0.00   0.0   0.029   0.000   24.2    51   13.4   24.2   9.35 1.1636    116    1    100.0    5 
26/11/14  16:55   10.1   10.2   10.1    97    9.7   3.0     N   0.25   5.0     N    9.9   10.4   10.3  1008.0  0.00   0.0   0.029   0.000   24.2    51   13.4   24.2   9.35 1.1637    117    1    100.0    5 
26/11/14  17:00   10.2   10.2   10.2    97    9.7   3.0     N   0.25   6.0     N   10.0   10.5   10.3  1007.9  0.00   0.0   0.028   0.000   24.2    51   13.4   24.2   9.35 1.1636    117    1    100.0    5 
26/11/14  17:05   10.2   10.2   10.2    97    9.8   4.0   NNE   0.33   6.0   NNE    9.6   10.5    9.9  1008.0  0.00   0.0   0.028   0.000   24.2    51   13.4   24.2   9.35 1.1637    117    1    100.0    5 
26/11/14  17:10   10.2   10.2   10.2    98    9.9   3.0   NNE   0.25   6.0   NNE   10.1   10.6   10.4  1007.9  0.00   0.0   0.028   0.000   24.2    51   13.4   24.2   9.35 1.1635    117    1    100.0    5 
26/11/14  17:15   10.2   10.2   10.2    98    9.9   4.0   NNE   0.33   5.0     N    9.6   10.6    9.9  1007.9  0.00   0.0   0.028   0.000   24.2    51   13.4   24.2   9.35 1.1635    116    1    100.0    5 
26/11/14  17:20   10.2   10.2   10.2    98    9.9   4.0     N   0.33   6.0     N    9.6   10.6    9.9  1007.8  0.00   0.0   0.028   0.000   24.2    51   13.4   24.2   9.35 1.1635    116    1    100.0    5 
26/11/14  17:25   10.2   10.2   10.2    98    9.9   4.0   NNE   0.33   7.0   NNE    9.6   10.6    9.9  1007.8  0.00   0.0   0.028   0.000   24.2    51   13.4   24.3   9.35 1.1631    115    1    100.0    5 
26/11/14  17:30   10.2   10.2   10.2    98    9.9   5.0   NNE   0.42   7.0   NNE    9.2   10.5    9.6  1007.7  0.00   0.0   0.028   0.000   24.2    51   13.4   24.3   9.35 1.1631    118    1    100.0    5 
26/11/14  17:35   10.2   10.2   10.2    98    9.9   5.0   NNE   0.42   8.0   NNE    9.2   10.5    9.6  1007.7  0.00   0.0   0.028   0.000   24.3    53   14.1   24.4   9.65 1.1621    117    1    100.0    5 
26/11/14  17:40   10.2   10.2   10.2    98    9.9   4.0   NNE   0.33   6.0     N    9.6   10.5    9.9  1007.6  0.00   0.0   0.028   0.000   24.3    53   14.1   24.4   9.65 1.1617    116    1    100.0    5 
26/11/14  17:45   10.2   10.2   10.1    98    9.9   5.0   NNE   0.42   7.0   NNE    9.2   10.5    9.6  1007.6  0.00   0.0   0.028   0.000   24.3    54   14.4   24.5   9.83 1.1614    117    1    100.0    5 
26/11/14  17:50   10.2   10.2   10.1    98    9.9   4.0   NNE   0.33   7.0   NNE    9.6   10.5    9.9  1007.6  0.00   0.0   0.028   0.000   24.4    55   14.8   24.6  10.01 1.1607    117    1    100.0    5 
26/11/14  17:55   10.2   10.2   10.2    97    9.7   4.0   NNE   0.33   7.0   NNE    9.6   10.5    9.9  1007.6  0.00   0.0   0.028   0.000   24.4    55   14.8   24.6  10.01 1.1606    116    1    100.0    5 
26/11/14  18:00   10.2   10.2   10.2    97    9.7   4.0   NNE   0.33   7.0   NNE    9.6   10.5    9.9  1007.6  0.00   0.0   0.028   0.000   24.4    56   15.1   24.7  10.21 1.1600    117    1    100.0    5 
26/11/14  18:05   10.2   10.2   10.2    98    9.9   4.0   NNE   0.33   7.0   NNE    9.6   10.6    9.9  1007.5  0.00   0.0   0.028   0.000   24.4    56   15.1   24.7  10.21 1.1600    117    1    100.0    5 
26/11/14  18:10   10.2   10.2   10.2    98    9.9   4.0   NNE   0.33   6.0   NNE    9.6   10.6    9.9  1007.6  0.00   0.0   0.028   0.000   24.4    56   15.1   24.7  10.21 1.1600    116    1    100.0    5 
26/11/14  18:15   10.3   10.3   10.2    98   10.0   4.0   NNE   0.33   7.0   NNE    9.7   10.6   10.1  1007.6  0.00   0.0   0.028   0.000   24.5    56   15.1   24.7  10.21 1.1598    116    1    100.0    5 
26/11/14  18:20   10.3   10.3   10.3    98   10.0   4.0   NNE   0.33   8.0    NE    9.7   10.6   10.1  1007.5  0.00   0.0   0.028   0.000   24.5    56   15.1   24.7  10.21 1.1597    116    1    100.0    5 
26/11/14  18:25   10.3   10.3   10.3    98   10.0   5.0   NNE   0.42   7.0   NNE    9.3   10.6    9.7  1007.5  0.00   0.0   0.028   0.000   24.6    57   15.5   24.8  10.30 1.1590    116    1    100.0    5 
26/11/14  18:30   10.3   10.3   10.3    98   10.0   5.0   NNE   0.42   7.0   NNE    9.4   10.7    9.7  1007.4  0.00   0.0   0.028   0.000   24.6    56   15.2   24.8  10.20 1.1592    117    1    100.0    5 
26/11/14  18:35   10.3   10.3   10.3    98   10.0   4.0   NNE   0.33   6.0   NNE    9.8   10.7   10.1  1007.3  0.00   0.0   0.028   0.000   24.6    57   15.5   24.9  10.30 1.1585    118    1    100.0    5 
26/11/14  18:40   10.3   10.3   10.3    97    9.9   3.0   NNE   0.25   5.0   NNE   10.2   10.6   10.5  1007.4  0.00   0.0   0.028   0.000   24.6    58   15.8   24.9  10.50 1.1582    116    1    100.0    5 
26/11/14  18:45   10.3   10.3   10.3    98   10.0   4.0   NNE   0.33   6.0   NNE    9.8   10.7   10.1  1007.4  0.00   0.0   0.028   0.000   24.7    58   15.8   25.0  10.49 1.1579    117    1    100.0    5 
26/11/14  18:50   10.3   10.3   10.3    98   10.0   4.0   NNE   0.33   5.0    NE    9.8   10.7   10.1  1007.3  0.00   0.0   0.028   0.000   24.7    57   15.6   24.9  10.29 1.1582    116    1    100.0    5 
26/11/14  18:55   10.3   10.3   10.3    97    9.9   4.0   NNE   0.33   6.0   NNE    9.8   10.6   10.1  1007.2  0.00   0.0   0.028   0.000   24.7    57   15.6   24.9  10.29 1.1581    117    1    100.0    5 
26/11/14  19:00   10.3   10.3   10.3    97    9.9   3.0    NE   0.25   5.0   NNE   10.2   10.6   10.5  1007.2  0.00   0.0   0.028   0.000   24.7    56   15.3   24.9  10.19 1.1584    116    1    100.0    5 
26/11/14  19:05   10.3   10.3   10.3    97    9.9   3.0    NE   0.25   5.0   NNE   10.2   10.6   10.5  1007.2  0.00   0.0   0.028   0.000   24.7    55   15.1   24.9   9.99 1.1585    116    1    100.0    5 
26/11/14  19:10   10.3   10.3   10.3    98   10.0   4.0   NNE   0.33   5.0   NNE    9.8   10.7   10.1  1007.2  0.00   0.0   0.028   0.000   24.7    55   15.1   24.9   9.99 1.1585    117    1    100.0    5 
26/11/14  19:15   10.3   10.3   10.3    98   10.0   3.0   NNE   0.25   5.0   NNE   10.2   10.7   10.6  1007.1  0.00   0.0   0.028   0.000   24.7    54   14.7   24.8   9.82 1.1591    117    1    100.0    5 
26/11/14  19:20   10.3   10.3   10.3    98   10.0   3.0   NNE   0.25   5.0   NNE   10.2   10.7   10.6  1007.1  0.00   0.0   0.028   0.000   24.7    54   14.8   24.8   9.82 1.1588    117    1    100.0    5 
26/11/14  19:25   10.3   10.3   10.3    98   10.0   2.0   NNE   0.17   5.0   NNE   10.3   10.7   10.7  1007.1  0.00   0.0   0.028   0.000   24.7    54   14.8   24.8   9.82 1.1588    117    1    100.0    5 
26/11/14  19:30   10.4   10.4   10.3    98   10.1   3.0   NNE   0.25   4.0   NNE   10.3   10.7   10.6  1007.0  0.00   0.0   0.028   0.000   24.7    54   14.8   24.8   9.82 1.1587    117    1    100.0    5 
26/11/14  19:35   10.4   10.4   10.3    98   10.1   4.0   NNE   0.33   6.0   NNE    9.8   10.7   10.2  1007.0  0.00   0.0   0.028   0.000   24.7    53   14.5   24.8   9.65 1.1590    117    1    100.0    5 
26/11/14  19:40   10.4   10.4   10.4    98   10.1   4.0   NNE   0.33   6.0   NNE    9.9   10.7   10.2  1007.0  0.00   0.0   0.027   0.000   24.7    53   14.5   24.8   9.65 1.1590    117    1    100.0    5 
26/11/14  19:45   10.4   10.4   10.4    98   10.1   4.0   NNE   0.33   6.0   NNE    9.9   10.7   10.2  1007.0  0.00   0.0   0.027   0.000   24.7    53   14.5   24.8   9.65 1.1590    116    1    100.0    5 
26/11/14  19:50   10.5   10.5   10.4    98   10.2   5.0   NNE   0.42   8.0   NNE    9.6   10.8    9.9  1006.9  0.00   0.0   0.027   0.000   24.7    53   14.5   24.8   9.65 1.1590    116    1    100.0    5 
26/11/14  19:55   10.5   10.5   10.4    98   10.2   4.0   NNE   0.33   7.0   NNE    9.9   10.8   10.2  1007.0  0.00   0.0   0.027   0.000   24.7    53   14.5   24.8   9.65 1.1590    115    1    100.0    5 
26/11/14  20:00   10.5   10.5   10.5    98   10.2   3.0   NNE   0.25   5.0   NNE   10.4   10.8   10.7  1006.9  0.00   0.0   0.027   0.000   24.8    52   14.3   24.8   9.52 1.1591    116    1    100.0    5 
26/11/14  20:05   10.5   10.5   10.5    98   10.2   2.0   NNE   0.17   3.0   NNE   10.5   10.8   10.8  1006.9  0.00   0.0   0.027   0.000   24.7    52   14.2   24.8   9.52 1.1593    117    1    100.0    5 
26/11/14  20:10   10.6   10.6   10.5    98   10.3   2.0   NNE   0.17   4.0   NNE   10.6   10.8   10.8  1006.9  0.00   0.0   0.027   0.000   24.8    52   14.3   24.8   9.52 1.1590    117    1    100.0    5 
26/11/14  20:15   10.6   10.6   10.6    98   10.3   1.0   NNE   0.08   3.0   NNE   10.6   10.8   10.8  1006.9  0.00   0.0   0.027   0.000   24.8    52   14.3   24.8   9.52 1.1590    116    1    100.0    5 
26/11/14  20:20   10.6   10.6   10.6    98   10.3   1.0   NNE   0.08   2.0   NNE   10.6   10.8   10.8  1006.8  0.00   0.0   0.027   0.000   24.8    52   14.3   24.8   9.52 1.1589    117    1    100.0    5 
26/11/14  20:25   10.6   10.6   10.6    98   10.3   1.0   NNE   0.08   2.0   NNE   10.6   10.8   10.8  1006.8  0.00   0.0   0.027   0.000   24.8    52   14.3   24.8   9.52 1.1589    115    1    100.0    5 
26/11/14  20:30   10.6   10.6   10.6    98   10.3   2.0   NNE   0.17   3.0   NNE   10.6   10.8   10.8  1006.8  0.00   0.0   0.027   0.000   24.8    52   14.3   24.8   9.52 1.1589    116    1    100.0    5 
26/11/14  20:35   10.6   10.6   10.6    98   10.3   2.0   NNE   0.17   3.0   NNE   10.6   10.8   10.8  1006.8  0.00   0.0   0.027   0.000   24.8    52   14.3   24.8   9.52 1.1589    117    1    100.0    5 
26/11/14  20:40   10.6   10.6   10.6    98   10.3   2.0   NNE   0.17   4.0   NNE   10.6   10.8   10.8  1006.7  0.00   0.0   0.027   0.000   24.8    52   14.3   24.8   9.52 1.1588    117    1    100.0    5 
26/11/14  20:45   10.6   10.6   10.6    98   10.3   1.0   NNE   0.08   3.0   NNE   10.6   10.8   10.8  1006.7  0.00   0.0   0.027   0.000   24.8    52   14.3   24.8   9.52 1.1588    118    1    100.0    5 
26/11/14  20:50   10.6   10.6   10.6    98   10.3   1.0   NNE   0.08   3.0   NNE   10.6   10.9   10.9  1006.6  0.00   0.0   0.027   0.000   24.8    52   14.3   24.8   9.52 1.1587    117    1    100.0    5 
26/11/14  20:55   10.6   10.6   10.6    98   10.3   1.0   NNE   0.08   2.0   NNE   10.6   10.9   10.9  1006.6  0.00   0.0   0.027   0.000   24.8    52   14.3   24.8   9.52 1.1587    116    1    100.0    5 
26/11/14  21:00   10.6   10.7   10.6    98   10.3   1.0   NNE   0.08   3.0   NNE   10.6   10.9   10.9  1006.6  0.00   0.0   0.027   0.000   24.7    52   14.2   24.8   9.52 1.1589    117    1    100.0    5 
26/11/14  21:05   10.7   10.7   10.6    98   10.4   1.0   NNE   0.08   2.0   NNE   10.7   10.9   10.9  1006.5  0.00   0.0   0.027   0.000   24.7    52   14.2   24.8   9.52 1.1589    116    1    100.0    5 
26/11/14  21:10   10.7   10.7   10.7    98   10.4   1.0   NNE   0.08   2.0   NNE   10.7   10.9   10.9  1006.5  0.00   0.0   0.027   0.000   24.7    52   14.2   24.8   9.52 1.1589    116    1    100.0    5 
26/11/14  21:15   10.7   10.7   10.7    98   10.4   1.0   NNE   0.08   2.0   NNE   10.7   11.0   11.0  1006.5  0.00   0.0   0.026   0.000   24.7    52   14.2   24.8   9.52 1.1588    117    1    100.0    5 
26/11/14  21:20   10.7   10.7   10.7    98   10.4   1.0   NNE   0.08   2.0   NNE   10.7   11.0   11.0  1006.5  0.00   0.0   0.026   0.000   24.7    52   14.2   24.8   9.52 1.1588    116    1    100.0    5 
26/11/14  21:25   10.7   10.8   10.7    98   10.4   1.0   NNE   0.08   3.0   NNE   10.7   11.0   11.0  1006.4  0.00   0.0   0.026   0.000   24.7    52   14.2   24.8   9.52 1.1587    117    1    100.0    5 
26/11/14  21:30   10.7   10.7   10.7    98   10.4   2.0   NNE   0.17   3.0   NNE   10.7   11.0   11.0  1006.4  0.00   0.0   0.026   0.000   24.7    52   14.2   24.8   9.52 1.1587    117    1    100.0    5 
26/11/14  21:35   10.7   10.7   10.7    98   10.4   1.0   NNE   0.08   2.0   NNE   10.7   11.0   11.0  1006.3  0.00   0.0   0.026   0.000   24.7    52   14.2   24.8   9.52 1.1586    115    1    100.0    5 
26/11/14  21:40   10.7   10.7   10.7    98   10.4   1.0   NNE   0.08   2.0   NNE   10.7   11.0   11.0  1006.3  0.00   0.0   0.026   0.000   24.7    52   14.2   24.7   9.52 1.1588    117    1    100.0    5 
26/11/14  21:45   10.7   10.7   10.7    98   10.4   2.0   NNE   0.17   3.0   NNE   10.7   11.0   11.0  1006.1  0.00   0.0   0.026   0.000   24.7    52   14.2   24.7   9.52 1.1587    117    1    100.0    5 
26/11/14  21:50   10.8   10.8   10.7    98   10.5   1.0   NNE   0.08   2.0   NNE   10.8   11.1   11.1  1006.2  0.00   0.0   0.026   0.000   24.7    52   14.2   24.7   9.52 1.1587    118    1    100.0    5 
26/11/14  21:55   10.8   10.8   10.8    98   10.5   2.0   NNE   0.17   4.0   NNE   10.8   11.1   11.1  1006.1  0.00   0.0   0.026   0.000   24.7    52   14.2   24.7   9.52 1.1586    117    1    100.0    5 
26/11/14  22:00   10.8   10.8   10.8    98   10.5   2.0   NNE   0.17   3.0   NNE   10.8   11.1   11.1  1006.0  0.00   0.0   0.026   0.000   24.6    52   14.1   24.7   9.52 1.1588    117    1    100.0    5 
26/11/14  22:05   10.8   10.8   10.7    98   10.5   2.0   NNE   0.17   3.0   NNE   10.8   11.1   11.1  1006.0  0.00   0.0   0.026   0.000   24.6    52   14.1   24.7   9.52 1.1587    116    1    100.0    5 
26/11/14  22:10   10.7   10.8   10.7    98   10.4   1.0   NNE   0.08   3.0   NNE   10.7   11.0   11.0  1005.9  0.00   0.0   0.026   0.000   24.6    52   14.1   24.7   9.52 1.1587    116    1    100.0    5 
26/11/14  22:15   10.7   10.7   10.7    98   10.4   1.0   NNE   0.08   3.0   NNE   10.7   11.0   11.0  1005.8  0.00   0.0   0.026   0.000   24.6    52   14.1   24.7   9.52 1.1586    117    1    100.0    5 
26/11/14  22:20   10.7   10.7   10.7    98   10.4   1.0   NNE   0.08   2.0   NNE   10.7   10.9   10.9  1005.8  0.00   0.0   0.027   0.000   24.6    52   14.0   24.6   9.53 1.1588    116    1    100.0    5 
26/11/14  22:25   10.7   10.7   10.7    98   10.4   1.0   NNE   0.08   2.0   NNE   10.7   10.9   10.9  1005.8  0.00   0.0   0.027   0.000   24.6    52   14.0   24.6   9.53 1.1588    117    1    100.0    5 
26/11/14  22:30   10.7   10.7   10.7    98   10.4   0.0   NNE   0.00   2.0   NNE   10.7   10.9   10.9  1005.7  0.00   0.0   0.027   0.000   24.6    52   14.0   24.6   9.53 1.1587    115    1    100.0    5 
26/11/14  22:35   10.7   10.7   10.7    98   10.4   1.0   NNE   0.08   2.0   NNE   10.7   10.9   10.9  1005.7  0.00   0.0   0.027   0.000   24.6    52   14.0   24.6   9.53 1.1587    116    1    100.0    5 
26/11/14  22:40   10.7   10.7   10.7    98   10.4   1.0   NNE   0.08   3.0   NNE   10.7   10.9   10.9  1005.7  0.00   0.0   0.027   0.000   24.6    52   14.0   24.6   9.53 1.1587    117    1    100.0    5 
26/11/14  22:45   10.7   10.7   10.7    98   10.4   1.0   NNE   0.08   2.0   NNE   10.7   10.9   10.9  1005.6  0.00   0.0   0.027   0.000   24.6    52   14.0   24.6   9.53 1.1586    115    1    100.0    5 
26/11/14  22:50   10.7   10.7   10.7    98   10.4   1.0   NNE   0.08   2.0   NNE   10.7   10.9   10.9  1005.6  0.00   0.0   0.027   0.000   24.6    52   14.0   24.6   9.53 1.1586    116    1    100.0    5 
26/11/14  22:55   10.7   10.7   10.7    98   10.4   1.0   NNE   0.08   3.0   NNE   10.7   10.9   10.9  1005.5  0.00   0.0   0.027   0.000   24.6    52   14.0   24.6   9.53 1.1585    117    1    100.0    5 
26/11/14  23:00   10.7   10.7   10.7    98   10.4   1.0   NNE   0.08   3.0   NNE   10.7   10.9   10.9  1005.5  0.00   0.0   0.027   0.000   24.6    52   14.0   24.6   9.53 1.1585    115    1    100.0    5 
26/11/14  23:05   10.7   10.7   10.6    98   10.4   1.0   NNE   0.08   3.0   NNE   10.7   10.9   10.9  1005.4  0.00   0.0   0.027   0.000   24.6    52   14.0   24.6   9.53 1.1584    116    1    100.0    5 
26/11/14  23:10   10.7   10.7   10.6    98   10.4   2.0   NNE   0.17   3.0   NNE   10.7   10.9   10.9  1005.4  0.00   0.0   0.027   0.000   24.6    52   14.0   24.6   9.53 1.1583    116    1    100.0    5 
26/11/14  23:15   10.6   10.7   10.6    98   10.3   3.0   NNE   0.25   4.0   NNE   10.5   10.9   10.8  1005.4  0.00   0.0   0.027   0.000   24.6    52   14.0   24.6   9.53 1.1583    117    1    100.0    5 
26/11/14  23:20   10.6   10.6   10.6    98   10.3   2.0   NNE   0.17   4.0   NNE   10.6   10.8   10.8  1005.4  0.00   0.0   0.027   0.000   24.6    52   14.0   24.6   9.53 1.1583    117    1    100.0    5 
26/11/14  23:25   10.6   10.6   10.6    98   10.3   2.0   NNE   0.17   3.0   NNE   10.6   10.8   10.8  1005.4  0.00   0.0   0.027   0.000   24.6    52   14.0   24.6   9.53 1.1583    117    1    100.0    5 
26/11/14  23:30   10.5   10.6   10.5    98   10.2   2.0   NNE   0.17   3.0   NNE   10.5   10.8   10.8  1005.3  0.00   0.0   0.027   0.000   24.6    52   14.1   24.7   9.52 1.1579    117    1    100.0    5 
26/11/14  23:35   10.5   10.6   10.5    98   10.2   2.0   NNE   0.17   3.0   NNE   10.5   10.8   10.8  1005.3  0.00   0.0   0.027   0.000   24.6    52   14.0   24.6   9.53 1.1582    117    1    100.0    5 
26/11/14  23:40   10.5   10.5   10.5    98   10.2   1.0   NNE   0.08   3.0   NNE   10.5   10.8   10.8  1005.2  0.00   0.0   0.027   0.000   24.6    52   14.0   24.6   9.53 1.1581    117    1    100.0    5 
26/11/14  23:45   10.5   10.5   10.5    98   10.2   1.0   NNE   0.08   3.0   NNE   10.5   10.8   10.8  1005.2  0.00   0.0   0.027   0.000   24.6    52   14.0   24.6   9.53 1.1581    116    1    100.0    5 
26/11/14  23:50   10.6   10.6   10.5    98   10.3   1.0   NNE   0.08   2.0   NNE   10.6   10.8   10.8  1005.0  0.00   0.0   0.027   0.000   24.6    52   14.0   24.6   9.53 1.1579    117    1    100.0    5 
26/11/14  23:55   10.6   10.6   10.5    98   10.3   1.0   NNE   0.08   2.0   NNE   10.6   10.8   10.8  1005.0  0.00   0.0   0.027   0.000   24.6    52   14.0   24.6   9.53 1.1579    117    1    100.0    5 
27/11/14  00:00   10.6   10.6   10.6    98   10.3   1.0   NNE   0.08   2.0   NNE   10.6   10.8   10.8  1004.9  0.00   0.0   0.027   0.000   24.5    51   13.7   24.5   9.35 1.1584    115    1    100.0    5 
27/11/14   0:05   10.6   10.6   10.6    98   10.3   1.0   NNE   0.08   3.0   NNE   10.6   10.8   10.8  1004.9  0.00   0.0   0.027   0.000   24.5    51   13.7   24.5   9.35 1.1584    115    1    100.0    5 
27/11/14   0:10   10.6   10.6   10.6    98   10.3   1.0   NNE   0.08   2.0   NNE   10.6   10.9   10.9  1004.8  0.00   0.0   0.027   0.000   24.5    51   13.7   24.5   9.35 1.1583    116    1    100.0    5 
27/11/14   0:15   10.6   10.6   10.6    98   10.3   0.0   NNE   0.00   2.0   NNE   10.6   10.9   10.9  1004.8  0.00   0.0   0.027   0.000   24.5    51   13.7   24.5   9.35 1.1583    117    1    100.0    5 
27/11/14   0:20   10.6   10.6   10.6    98   10.3   1.0   NNE   0.08   2.0   NNE   10.6   10.9   10.9  1004.7  0.00   0.0   0.027   0.000   24.5    51   13.7   24.5   9.35 1.1582    118    1    100.0    5 
27/11/14   0:25   10.6   10.6   10.6    98   10.3   1.0   NNE   0.08   3.0   NNE   10.6   10.8   10.8  1004.7  0.00   0.0   0.027   0.000   24.4    51   13.6   24.5   9.35 1.1585    116    1    100.0    5 
27/11/14   0:30   10.6   10.6   10.6    98   10.3   0.0   NNE   0.00   2.0   NNE   10.6   10.8   10.8  1004.7  0.00   0.0   0.027   0.000   24.4    51   13.6   24.5   9.35 1.1584    117    1    100.0    5 
27/11/14   0:35   10.6   10.6   10.6    98   10.3   0.0   NNE   0.00   2.0   NNE   10.6   10.8   10.8  1004.7  0.00   0.0   0.027   0.000   24.4    51   13.6   24.5   9.35 1.1584    117    1    100.0    5 
27/11/14   0:40   10.6   10.6   10.6    98   10.3   0.0   NNE   0.00   2.0   NNE   10.6   10.8   10.8  1004.7  0.00   0.0   0.027   0.000   24.4    51   13.6   24.4   9.35 1.1587    116    1    100.0    5 
27/11/14   0:45   10.5   10.6   10.5    98   10.2   2.0   NNE   0.17   6.0   WSW   10.5   10.8   10.8  1004.7  0.00   0.0   0.027   0.000   24.4    51   13.6   24.4   9.35 1.1587    117    1    100.0    5 
27/11/14   0:50   10.4   10.5   10.4    98   10.1   2.0   WNW   0.17   4.0   WNW   10.4   10.7   10.7  1004.6  0.00   0.0   0.027   0.000   24.4    51   13.6   24.4   9.35 1.1586    116    1    100.0    5 
27/11/14   0:55   10.4   10.4   10.4    98   10.1   1.0   WNW   0.08   2.0   WNW   10.4   10.7   10.7  1004.5  0.00   0.0   0.027   0.000   24.4    51   13.6   24.4   9.35 1.1585    117    1    100.0    5 
27/11/14   1:00   10.4   10.4   10.4    98   10.1   1.0   WNW   0.08   3.0   WNW   10.4   10.7   10.7  1004.5  0.00   0.0   0.028   0.000   24.4    51   13.6   24.4   9.35 1.1585    117    1    100.0    5 
27/11/14   1:05   10.4   10.4   10.4    98   10.1   1.0   WNW   0.08   3.0   WNW   10.4   10.7   10.7  1004.5  0.00   0.0   0.028   0.000   24.4    51   13.6   24.4   9.35 1.1585    117    1    100.0    5 
27/11/14   1:10   10.3   10.4   10.3    98   10.0   2.0   WNW   0.17   4.0   WNW   10.3   10.7   10.7  1004.5  0.00   0.0   0.028   0.000   24.3    51   13.5   24.4   9.35 1.1587    117    1    100.0    5 
27/11/14   1:15   10.3   10.3   10.3    98   10.0   1.0   WNW   0.08   3.0   WNW   10.3   10.6   10.6  1004.4  0.00   0.0   0.028   0.000   24.3    51   13.5   24.4   9.35 1.1587    117    1    100.0    5 
27/11/14   1:20   10.3   10.3   10.3    98   10.0   1.0   WNW   0.08   3.0   WNW   10.3   10.6   10.6  1004.3  0.00   0.0   0.028   0.000   24.3    51   13.5   24.3   9.35 1.1589    118    1    100.0    5 
27/11/14   1:25   10.3   10.3   10.3    98   10.0   1.0    NW   0.08   3.0   WNW   10.3   10.6   10.6  1004.4  0.00   0.0   0.028   0.000   24.3    51   13.5   24.3   9.35 1.1589    117    1    100.0    5 
27/11/14   1:30   10.3   10.3   10.3    98   10.0   2.0   NNW   0.17   3.0   NNW   10.3   10.6   10.6  1004.4  0.00   0.0   0.028   0.000   24.2    51   13.4   24.3   9.35 1.1592    116    1    100.0    5 
27/11/14   1:35   10.3   10.3   10.3    98   10.0   2.0   NNW   0.17   4.0   NNW   10.3   10.6   10.6  1004.3  0.00   0.0   0.028   0.000   24.2    51   13.4   24.3   9.35 1.1591    117    1    100.0    5 
27/11/14   1:40   10.2   10.3   10.2    98    9.9   1.0   NNW   0.08   3.0   NNW   10.2   10.6   10.6  1004.3  0.00   0.0   0.028   0.000   24.2    51   13.4   24.3   9.35 1.1591    117    1    100.0    5 
27/11/14   1:45   10.2   10.2   10.2    98    9.9   1.0   NNW   0.08   3.0   NNW   10.2   10.6   10.6  1004.2  0.00   0.0   0.028   0.000   24.2    51   13.4   24.3   9.35 1.1590    116    1    100.0    5 
27/11/14   1:50   10.2   10.2   10.2    98    9.9   0.0   NNW   0.00   1.0   NNW   10.2   10.5   10.5  1004.2  0.00   0.0   0.028   0.000   24.2    51   13.4   24.3   9.35 1.1590    117    1    100.0    5 
27/11/14   1:55   10.2   10.2   10.2    98    9.9   0.0   ---   0.00   0.0   ---   10.2   10.5   10.5  1004.2  0.00   0.0   0.028   0.000   24.2    51   13.4   24.2   9.35 1.1593    117    1    100.0    5 
27/11/14   2:00   10.2   10.2   10.2    98    9.9   0.0   NNW   0.00   1.0   NNW   10.2   10.5   10.5  1004.1  0.00   0.0   0.028   0.000   24.2    51   13.4   24.2   9.35 1.1592    117    1    100.0    5 
27/11/14   2:05   10.2   10.2   10.2    98    9.9   0.0   NNW   0.00   1.0   NNW   10.2   10.5   10.5  1004.2  0.00   0.0   0.028   0.000   24.2    51   13.4   24.2   9.35 1.1593    117    1    100.0    5 
27/11/14   2:10   10.2   10.2   10.2    98    9.9   0.0   NNW   0.00   1.0   NNW   10.2   10.5   10.5  1004.1  0.00   0.0   0.028   0.000   24.2    51   13.4   24.2   9.35 1.1591    117    1    100.0    5 
27/11/14   2:15   10.2   10.2   10.2    98    9.9   0.0   ---   0.00   0.0   ---   10.2   10.5   10.5  1004.0  0.00   0.0   0.028   0.000   24.1    51   13.3   24.2   9.35 1.1593    117    1    100.0    5 
27/11/14   2:20   10.2   10.2   10.2    98    9.9   0.0   ---   0.00   0.0   ---   10.2   10.6   10.6  1004.0  0.00   0.0   0.028   0.000   24.1    51   13.3   24.2   9.35 1.1593    117    1    100.0    5 
27/11/14   2:25   10.2   10.2   10.2    98    9.9   0.0   ---   0.00   0.0   ---   10.2   10.6   10.6  1004.0  0.00   0.0   0.028   0.000   24.1    51   13.3   24.1   9.35 1.1596    118    1    100.0    5 
27/11/14   2:30   10.2   10.2   10.2    98    9.9   0.0   NNW   0.00   1.0   NNW   10.2   10.6   10.6  1004.0  0.00   0.0   0.028   0.000   24.1    51   13.3   24.1   9.35 1.1595    117    1    100.0    5 
27/11/14   2:35   10.2   10.2   10.2    98    9.9   0.0   NNW   0.00   1.0   NNW   10.2   10.5   10.5  1003.9  0.00   0.0   0.028   0.000   24.1    51   13.3   24.1   9.35 1.1595    117    1    100.0    5 
27/11/14   2:40   10.1   10.2   10.1    98    9.8   1.0   NNW   0.08   3.0   NNW   10.1   10.4   10.4  1003.8  0.00   0.0   0.029   0.000   24.0    51   13.2   24.1   9.35 1.1596    115    1    100.0    5 
27/11/14   2:45   10.1   10.2   10.1    98    9.8   1.0   NNW   0.08   2.0   NNW   10.1   10.4   10.4  1003.8  0.00   0.0   0.029   0.000   24.0    50   12.9   24.1   9.25 1.1600    117    1    100.0    5 
27/11/14   2:50   10.0   10.1   10.0    98    9.7   0.0   NNW   0.00   2.0   NNW   10.0   10.3   10.3  1003.7  0.00   0.0   0.029   0.000   24.0    50   12.9   24.1   9.25 1.1599    116    1    100.0    5 
27/11/14   2:55    9.9   10.0    9.9    98    9.6   0.0   NNW   0.00   2.0   NNW    9.9   10.3   10.3  1003.8  0.00   0.0   0.029   0.000   23.9    50   12.9   24.0   9.25 1.1602    115    1    100.0    5 
27/11/14   3:00    9.9    9.9    9.9    98    9.6   1.0   NNW   0.08   3.0   NNW    9.9   10.2   10.2  1003.7  0.00   0.0   0.029   0.000   23.9    50   12.9   24.0   9.25 1.1601    115    1    100.0    5 
27/11/14   3:05    9.8    9.9    9.8    98    9.5   2.0   NNW   0.17   4.0   NNW    9.8   10.2   10.2  1003.7  0.00   0.0   0.030   0.000   23.9    50   12.9   24.0   9.25 1.1601    116    1    100.0    5 
27/11/14   3:10    9.8    9.8    9.8    97    9.3   1.0   NNW   0.08   3.0   NNW    9.8   10.1   10.1  1003.7  0.00   0.0   0.030   0.000   23.9    50   12.9   24.0   9.25 1.1601    116    1    100.0    5 
27/11/14   3:15    9.8    9.8    9.8    98    9.5   0.0   NNW   0.00   2.0   NNW    9.8   10.1   10.1  1003.6  0.00   0.0   0.030   0.000   23.9    50   12.8   23.9   9.25 1.1603    116    1    100.0    5 
27/11/14   3:20    9.7    9.8    9.7    98    9.4   2.0   NNW   0.17   6.0   WNW    9.7   10.1   10.1  1003.6  0.00   0.0   0.030   0.000   23.9    50   12.8   23.9   9.25 1.1602    116    1    100.0    5 
27/11/14   3:25    9.6    9.7    9.6    98    9.3   4.0   WNW   0.33   6.0   WNW    8.9    9.9    9.3  1003.6  0.00   0.0   0.030   0.000   23.8    50   12.8   23.9   9.25 1.1605    117    1    100.0    5 
27/11/14   3:30    9.6    9.6    9.6    98    9.3   3.0   WNW   0.25   6.0     W    9.3    9.9    9.6  1003.6  0.00   0.0   0.030   0.000   23.8    50   12.8   23.9   9.25 1.1605    118    1    100.0    5 
27/11/14   3:35    9.5    9.6    9.5    98    9.2   3.0   WNW   0.25   6.0   WNW    9.2    9.8    9.6  1003.5  0.00   0.0   0.031   0.000   23.8    50   12.8   23.9   9.25 1.1605    117    1    100.0    5 
27/11/14   3:40    9.4    9.5    9.4    98    9.1   3.0   WNW   0.25   5.0   WNW    9.2    9.8    9.5  1003.5  0.00   0.0   0.031   0.000   23.8    50   12.8   23.9   9.25 1.1604    117    1    100.0    5 
27/11/14   3:45    9.4    9.4    9.4    98    9.1   4.0   WNW   0.33   6.0   WNW    8.7    9.8    9.1  1003.4  0.00   0.0   0.031   0.000   23.8    50   12.8   23.9   9.25 1.1603    117    1    100.0    5 
27/11/14   3:50    9.4    9.4    9.4    98    9.1   2.0   WNW   0.17   6.0   WNW    9.4    9.8    9.8  1003.4  0.00   0.0   0.031   0.000   23.8    50   12.8   23.9   9.25 1.1603    116    1    100.0    5 
27/11/14   3:55    9.4    9.4    9.4    98    9.1   3.0   WNW   0.25   6.0   WNW    9.2    9.8    9.5  1003.4  0.00   0.0   0.031   0.000   23.8    50   12.7   23.8   9.25 1.1605    117    1    100.0    5 
27/11/14   4:00    9.4    9.4    9.4    98    9.1   3.0   WNW   0.25   4.0   WNW    9.2    9.8    9.5  1003.3  0.00   0.0   0.031   0.000   23.8    50   12.7   23.8   9.25 1.1605    115    1    100.0    5 
27/11/14   4:05    9.4    9.4    9.4    98    9.1   4.0   WNW   0.33   6.0     W    8.7    9.8    9.1  1003.3  0.00   0.0   0.031   0.000   23.8    50   12.7   23.8   9.25 1.1605    117    1    100.0    5 
27/11/14   4:10    9.4    9.4    9.4    98    9.1   4.0     W   0.33   6.0   WNW    8.7    9.8    9.1  1003.3  0.00   0.0   0.031   0.000   23.8    50   12.7   23.8   9.25 1.1605    116    1    100.0    5 
27/11/14   4:15    9.4    9.4    9.4    98    9.1   4.0   WNW   0.33   7.0     W    8.7    9.7    9.0  1003.3  0.00   0.0   0.031   0.000   23.7    50   12.7   23.7   9.25 1.1607    117    1    100.0    5 
27/11/14   4:20    9.4    9.4    9.4    98    9.1   3.0   WNW   0.25   6.0   WNW    9.1    9.7    9.4  1003.2  0.00   0.0   0.031   0.000   23.7    50   12.7   23.7   9.25 1.1606    117    1    100.0    5 
27/11/14   4:25    9.4    9.4    9.4    98    9.1   2.0   WNW   0.17   4.0     W    9.4    9.7    9.7  1003.2  0.00   0.0   0.031   0.000   23.7    50   12.7   23.7   9.25 1.1606    116    1    100.0    5 
27/11/14   4:30    9.4    9.4    9.4    98    9.1   1.0   WNW   0.08   4.0   WNW    9.4    9.7    9.7  1003.1  0.00   0.0   0.031   0.000   23.7    50   12.6   23.6   9.25 1.1608    117    1    100.0    5 
27/11/14   4:35    9.4    9.4    9.3    98    9.1   3.0   WNW   0.25   5.0   WNW    9.1    9.7    9.4  1003.2  0.00   0.0   0.031   0.000   23.7    50   12.6   23.6   9.25 1.1609    117    1    100.0    5 
27/11/14   4:40    9.3    9.4    9.3    98    9.0   2.0     W   0.17   4.0     W    9.3    9.7    9.7  1003.2  0.00   0.0   0.031   0.000   23.7    50   12.6   23.6   9.25 1.1609    117    1    100.0    5 
27/11/14   4:45    9.3    9.3    9.3    98    9.0   3.0   WNW   0.25   5.0     W    9.0    9.6    9.3  1003.1  0.00   0.0   0.031   0.000   23.7    50   12.6   23.6   9.25 1.1608    117    1    100.0    5 
27/11/14   4:50    9.2    9.3    9.2    98    8.9   2.0     W   0.17   4.0     W    9.2    9.5    9.5  1003.1  0.00   0.0   0.032   0.000   23.7    50   12.6   23.6   9.25 1.1608    117    1    100.0    5 
27/11/14   4:55    9.2    9.2    9.2    98    8.9   3.0     W   0.25   5.0     W    8.9    9.5    9.2  1003.0  0.00   0.0   0.032   0.000   23.7    50   12.6   23.6   9.25 1.1607    115    1    100.0    5 
27/11/14   5:00    9.2    9.2    9.2    98    8.9   3.0     W   0.25   7.0   WSW    8.9    9.4    9.2  1003.1  0.00   0.0   0.032   0.000   23.6    50   12.6   23.6   9.25 1.1610    116    1    100.0    5 
27/11/14   5:05    9.1    9.2    9.1    98    8.8   4.0     W   0.33   8.0     W    8.3    9.4    8.6  1003.0  0.00   0.0   0.032   0.000   23.6    50   12.6   23.6   9.25 1.1610    116    1    100.0    5 
27/11/14   5:10    9.1    9.1    9.1    98    8.8   4.0     W   0.33   7.0     W    8.3    9.3    8.6  1003.0  0.00   0.0   0.032   0.000   23.6    50   12.6   23.6   9.25 1.1609    117    1    100.0    5 
27/11/14   5:15    9.0    9.1    9.0    98    8.7   4.0     W   0.33   6.0     W    8.2    9.3    8.5  1003.0  0.00   0.0   0.032   0.000   23.6    50   12.6   23.6   9.25 1.1609    117    1    100.0    5 
27/11/14   5:20    8.9    9.0    8.9    98    8.6   4.0     W   0.33   8.0   WSW    8.2    9.2    8.4  1002.9  0.00   0.0   0.033   0.000   23.6    50   12.6   23.6   9.25 1.1608    116    1    100.0    5 
27/11/14   5:25    8.9    8.9    8.9    98    8.6   4.0     W   0.33   7.0   WSW    8.2    9.2    8.4  1002.9  0.00   0.0   0.033   0.000   23.6    50   12.5   23.5   9.25 1.1611    117    1    100.0    5 
27/11/14   5:30    8.9    8.9    8.9    98    8.6   4.0     W   0.33   6.0   WNW    8.2    9.2    8.4  1002.9  0.00   0.0   0.033   0.000   23.6    50   12.5   23.5   9.25 1.1611    116    1    100.0    5 
27/11/14   5:35    8.9    8.9    8.9    98    8.6   4.0     W   0.33   7.0     W    8.2    9.2    8.4  1002.8  0.00   0.0   0.033   0.000   23.6    50   12.5   23.5   9.25 1.1610    117    1    100.0    5 
27/11/14   5:40    8.9    8.9    8.9    98    8.6   5.0     W   0.42   8.0     W    7.8    9.2    8.1  1002.8  0.00   0.0   0.033   0.000   23.6    50   12.5   23.5   9.25 1.1610    117    1    100.0    5 
27/11/14   5:45    8.9    8.9    8.9    98    8.6   3.0   WNW   0.25   6.0   WNW    8.6    9.2    8.9  1002.7  0.00   0.0   0.033   0.000   23.6    50   12.5   23.5   9.25 1.1609    117    1    100.0    5 
27/11/14   5:50    8.9    8.9    8.9    98    8.6   2.0   WNW   0.17   6.0   WNW    8.9    9.2    9.2  1002.7  0.00   0.0   0.033   0.000   23.5    50   12.5   23.4   9.25 1.1612    117    1    100.0    5 
27/11/14   5:55    8.9    8.9    8.9    98    8.6   3.0   WNW   0.25   7.0   WNW    8.6    9.2    8.8  1002.8  0.00   0.0   0.033   0.000   23.5    50   12.5   23.4   9.25 1.1613    117    1    100.0    5 
27/11/14   6:00    8.8    8.9    8.8    98    8.5   4.0   WNW   0.33   6.0     W    8.1    9.1    8.3  1002.9  0.00   0.0   0.033   0.000   23.4    50   12.4   23.3   9.25 1.1616    116    1    100.0    5 
27/11/14   6:05    8.8    8.8    8.8    98    8.5   4.0   WNW   0.33   6.0   WNW    8.1    9.1    8.3  1002.8  0.00   0.0   0.033   0.000   23.4    50   12.4   23.3   9.25 1.1616    117    1    100.0    5 
27/11/14   6:10    8.8    8.8    8.8    98    8.5   4.0   WNW   0.33   6.0   WNW    8.1    9.1    8.3  1002.8  0.00   0.0   0.033   0.000   23.4    50   12.4   23.3   9.25 1.1615    117    1    100.0    5 
27/11/14   6:15    8.8    8.8    8.8    98    8.5   4.0   WNW   0.33   6.0    NW    8.1    9.1    8.3  1002.8  0.00   0.0   0.033   0.000   23.4    50   12.4   23.2   9.25 1.1618    117    1    100.0    5 
27/11/14   6:20    8.8    8.8    8.8    98    8.5   4.0   WNW   0.33   7.0   WNW    8.1    9.1    8.3  1002.9  0.00   0.0   0.033   0.000   23.4    50   12.4   23.2   9.25 1.1619    117    1    100.0    5 
27/11/14   6:25    8.8    8.8    8.8    98    8.5   5.0     W   0.42   9.0     W    7.7    9.1    7.9  1003.0  0.00   0.0   0.033   0.000   23.4    50   12.4   23.2   9.25 1.1620    117    1    100.0    5 
27/11/14   6:30    8.8    8.8    8.8    98    8.5   4.0     W   0.33   6.0     W    8.0    9.1    8.3  1003.0  0.00   0.0   0.033   0.000   23.3    50   12.3   23.2   9.25 1.1623    117    1    100.0    5 
27/11/14   6:35    8.8    8.8    8.8    98    8.5   4.0   WNW   0.33   6.0   WNW    8.0    9.1    8.3  1003.0  0.00   0.0   0.033   0.000   23.3    50   12.3   23.2   9.25 1.1623    117    1    100.0    5 
27/11/14   6:40    8.8    8.8    8.8    98    8.5   4.0     W   0.33   6.0   WNW    8.0    9.1    8.3  1003.0  0.00   0.0   0.033   0.000   23.3    49   12.0   23.1   9.05 1.1626    118    1    100.0    5 
27/11/14   6:45    8.8    8.8    8.8    98    8.5   3.0   WNW   0.25   6.0   WNW    8.4    9.1    8.7  1003.0  0.00   0.0   0.033   0.000   23.3    50   12.3   23.1   9.25 1.1626    117    1    100.0    5 
27/11/14   6:50    8.8    8.8    8.8    98    8.5   3.0   WNW   0.25   6.0   WNW    8.5    9.1    8.8  1002.9  0.00   0.0   0.033   0.000   23.3    50   12.3   23.1   9.25 1.1625    117    1    100.0    5 
27/11/14   6:55    8.8    8.8    8.8    98    8.5   4.0   WNW   0.33   6.0   WNW    8.0    9.1    8.3  1002.9  0.00   0.0   0.033   0.000   23.3    50   12.3   23.1   9.25 1.1625    116    1    100.0    5 
27/11/14   7:00    8.8    8.8    8.8    98    8.5   3.0   WNW   0.25   6.0   WNW    8.4    9.1    8.7  1002.9  0.00   0.0   0.033   0.000   23.3    50   12.3   23.1   9.25 1.1625    117    1    100.0    5 
27/11/14   7:05    8.8    8.8    8.7    98    8.5   2.0   WNW   0.17   6.0     W    8.8    9.1    9.1  1002.9  0.00   0.0   0.033   0.000   23.3    50   12.3   23.1   9.25 1.1625    117    1    100.0    5 
27/11/14   7:10    8.7    8.8    8.7    98    8.4   1.0   WNW   0.08   3.0   WNW    8.7    9.0    9.0  1002.9  0.00   0.0   0.033   0.000   23.3    50   12.3   23.1   9.25 1.1625    117    1    100.0    5 
27/11/14   7:15    8.7    8.7    8.7    98    8.4   1.0   WNW   0.08   3.0   WNW    8.7    9.0    9.0  1002.8  0.00   0.0   0.033   0.000   23.2    50   12.2   23.1   9.25 1.1626    117    1    100.0    5 
27/11/14   7:20    8.7    8.7    8.7    98    8.4   1.0   WNW   0.08   3.0   WNW    8.7    8.9    8.9  1002.9  0.00   0.0   0.034   0.000   23.2    50   12.2   23.1   9.25 1.1627    117    1    100.0    5 
27/11/14   7:25    8.7    8.7    8.7    98    8.4   3.0   WNW   0.25   6.0   WNW    8.3    8.9    8.6  1003.0  0.00   0.0   0.034   0.000   23.2    50   12.2   23.1   9.25 1.1628    115    1    100.0    5 
27/11/14   7:30    8.6    8.7    8.6    98    8.3   3.0   WNW   0.25   6.0   WNW    8.2    8.9    8.5  1003.0  0.00   0.0   0.034   0.000   23.2    50   12.2   23.1   9.25 1.1629    117    1    100.0    5 
27/11/14   7:35    8.6    8.7    8.6    98    8.3   2.0   WNW   0.17   7.0   WNW    8.6    8.9    8.9  1003.0  0.00   0.0   0.034   0.000   23.2    50   12.2   23.1   9.25 1.1628    116    1    100.0    5 
27/11/14   7:40    8.6    8.6    8.6    98    8.3   3.0   WNW   0.25   6.0   WNW    8.2    8.8    8.4  1003.1  0.00   0.0   0.034   0.000   23.2    50   12.2   23.1   9.25 1.1630    116    1    100.0    5 
27/11/14   7:45    8.5    8.6    8.5    98    8.2   3.0   WNW   0.25   6.0     W    8.1    8.7    8.3  1003.2  0.00   0.0   0.034   0.000   23.2    50   12.2   23.1   9.25 1.1630    118    1    100.0    5 
27/11/14   7:50    8.4    8.5    8.4    98    8.1   3.0   WNW   0.25   5.0     W    8.1    8.7    8.3  1003.1  0.00   0.0   0.034   0.000   23.2    50   12.2   23.1   9.25 1.1630    117    1    100.0    5 
27/11/14   7:55    8.4    8.4    8.4    98    8.1   3.0   WNW   0.25   6.0   WNW    8.1    8.7    8.3  1003.1  0.00   0.0   0.034   0.000   23.2    50   12.2   23.1   9.25 1.1630    117    1    100.0    5 
27/11/14   8:00    8.4    8.4    8.4    98    8.1   3.0   WNW   0.25   7.0    NW    8.0    8.6    8.2  1003.1  0.00   0.0   0.035   0.000   23.2    50   12.2   23.1   9.25 1.1630    117    1    100.0    5 
27/11/14   8:05    8.3    8.4    8.3    98    8.0   3.0   WNW   0.25   6.0   WNW    7.9    8.6    8.2  1003.1  0.00   0.0   0.035   0.000   23.2    50   12.2   23.1   9.25 1.1630    115    1    100.0    5 
27/11/14   8:10    8.3    8.3    8.3    98    8.0   2.0   WNW   0.17   5.0   WNW    8.3    8.6    8.6  1003.1  0.00   0.0   0.035   0.000   23.2    50   12.2   23.1   9.25 1.1630    117    1    100.0    5 
27/11/14   8:15    8.3    8.3    8.3    98    8.0   3.0    NW   0.25   5.0    NW    7.9    8.6    8.2  1003.1  0.00   0.0   0.035   0.000   23.3    50   12.3   23.1   9.25 1.1627    117    1    100.0    5 
27/11/14   8:20    8.3    8.3    8.3    98    8.0   3.0    NW   0.25   6.0    NW    7.9    8.6    8.2  1003.1  0.00   0.0   0.035   0.000   23.3    51   12.6   23.2   9.37 1.1623    117    1    100.0    5 
27/11/14   8:25    8.3    8.3    8.3    98    8.0   2.0    NW   0.17   4.0    NW    8.3    8.6    8.6  1003.0  0.00   0.0   0.035   0.000   23.3    51   12.6   23.2   9.37 1.1620    116    1    100.0    5 
27/11/14   8:30    8.3    8.3    8.3    98    8.0   0.0    NW   0.00   2.0    NW    8.3    8.6    8.6  1003.0  0.00   0.0   0.035   0.000   23.4    51   12.7   23.3   9.37 1.1617    117    1    100.0    5 
27/11/14   8:35    8.3    8.3    8.3    98    8.0   1.0    NW   0.08   2.0    NW    8.3    8.6    8.6  1003.0  0.00   0.0   0.035   0.000   23.4    51   12.7   23.3   9.37 1.1616    117    1    100.0    5 
27/11/14   8:40    8.3    8.3    8.3    98    8.0   1.0    NW   0.08   3.0     E    8.3    8.6    8.6  1003.0  0.00   0.0   0.035   0.000   23.4    51   12.7   23.4   9.37 1.1614    117    1    100.0    5 
27/11/14   8:45    8.4    8.4    8.3    98    8.1   1.0     E   0.08   3.0     E    8.4    8.6    8.6  1003.0  0.00   0.0   0.035   0.000   23.4    51   12.7   23.4   9.37 1.1615    116    1    100.0    5 
27/11/14   8:50    8.4    8.4    8.4    98    8.1   1.0     E   0.08   3.0     E    8.4    8.7    8.7  1003.0  0.00   0.0   0.034   0.000   23.4    51   12.7   23.4   9.37 1.1615    117    1    100.0    5 
27/11/14   8:55    8.4    8.4    8.4    98    8.1   1.0     E   0.08   3.0     E    8.4    8.7    8.7  1003.0  0.00   0.0   0.034   0.000   23.4    51   12.7   23.4   9.37 1.1614    116    1    100.0    5 
27/11/14   9:00    8.5    8.5    8.4    98    8.2   1.0     E   0.08   2.0     E    8.5    8.7    8.7  1003.0  0.00   0.0   0.034   0.000   23.4    51   12.7   23.4   9.37 1.1614    117    1    100.0    5 
27/11/14   9:05    8.6    8.6    8.5    98    8.3   1.0     E   0.08   2.0     E    8.6    8.9    8.9  1002.8  0.00   0.0   0.034   0.000   23.5    51   12.8   23.4   9.36 1.1609    117    1    100.0    5 
27/11/14   9:10    8.7    8.7    8.6    98    8.4   1.0     E   0.08   3.0     E    8.7    9.0    9.0  1002.7  0.00   0.0   0.033   0.000   23.5    51   12.8   23.4   9.36 1.1609    116    1    100.0    5 
27/11/14   9:15    8.8    8.8    8.7    98    8.5   1.0     E   0.08   2.0     E    8.8    9.1    9.1  1002.7  0.00   0.0   0.033   0.000   23.5    51   12.8   23.4   9.36 1.1609    116    1    100.0    5 
27/11/14   9:20    8.8    8.8    8.8    98    8.5   0.0     E   0.00   1.0     E    8.8    9.1    9.1  1002.7  0.00   0.0   0.033   0.000   23.5    51   12.8   23.4   9.36 1.1608    114    1    100.0    5 
27/11/14   9:25    8.8    8.8    8.8    98    8.5   0.0   ---   0.00   0.0   ---    8.8    9.1    9.1  1002.7  0.00   0.0   0.033   0.000   23.5    51   12.8   23.4   9.36 1.1609    116    1    100.0    5 
27/11/14   9:30    8.9    8.9    8.8    98    8.6   0.0     E   0.00   1.0     E    8.9    9.2    9.2  1002.8  0.00   0.0   0.033   0.000   23.5    51   12.8   23.4   9.36 1.1609    117    1    100.0    5 
27/11/14   9:35    9.1    9.1    8.9    98    8.8   0.0     E   0.00   1.0     E    9.1    9.3    9.3  1002.7  0.00   0.0   0.032   0.000   23.5    51   12.8   23.4   9.36 1.1608    117    1    100.0    5 
27/11/14   9:40    9.1    9.1    9.1    98    8.8   0.0     E   0.00   2.0     E    9.1    9.4    9.4  1002.7  0.00   0.0   0.032   0.000   23.5    51   12.8   23.4   9.36 1.1608    116    1    100.0    5 
27/11/14   9:45    9.2    9.2    9.1    98    8.9   0.0    NE   0.00   1.0    NE    9.2    9.4    9.4  1002.8  0.00   0.0   0.032   0.000   23.5    51   12.8   23.4   9.36 1.1609    117    1    100.0    5 
27/11/14   9:50    9.2    9.2    9.2    98    8.9   0.0    NE   0.00   1.0    NE    9.2    9.4    9.4  1002.8  0.00   0.0   0.032   0.000   23.5    51   12.8   23.4   9.36 1.1610    117    1    100.0    5 
27/11/14   9:55    9.3    9.3    9.2    98    9.0   1.0    NE   0.08   2.0    NE    9.3    9.6    9.6  1002.8  0.00   0.0   0.031   0.000   23.5    51   12.8   23.4   9.36 1.1609    117    1    100.0    5 
27/11/14  10:00    9.3    9.3    9.3    98    9.0   1.0    NE   0.08   3.0    NE    9.3    9.7    9.7  1002.8  0.00   0.0   0.031   0.000   23.5    52   13.1   23.5   9.56 1.1606    116    1    100.0    5 
27/11/14  10:05    9.4    9.4    9.3    98    9.1   1.0    NE   0.08   3.0    NE    9.4    9.7    9.7  1002.7  0.00   0.0   0.031   0.000   23.5    52   13.1   23.5   9.56 1.1604    117    1    100.0    5 
27/11/14  10:10    9.3    9.4    9.3    98    9.0   1.0    NE   0.08   3.0    NE    9.3    9.7    9.7  1002.6  0.00   0.0   0.031   0.000   23.6    52   13.1   23.6   9.56 1.1601    117    1    100.0    5 
27/11/14  10:15    9.3    9.3    9.3    98    9.0   0.0    NE   0.00   2.0    NE    9.3    9.7    9.7  1002.5  0.00   0.0   0.031   0.000   23.6    52   13.1   23.6   9.56 1.1600    116    1    100.0    5 
27/11/14  10:20    9.3    9.3    9.3    98    9.0   0.0    NE   0.00   1.0    NE    9.3    9.7    9.7  1002.5  0.00   0.0   0.031   0.000   23.6    52   13.2   23.7   9.56 1.1597    116    1    100.0    5 
27/11/14  10:25    9.4    9.4    9.3    98    9.1   0.0    NE   0.00   1.0    NE    9.4    9.7    9.7  1002.4  0.00   0.0   0.031   0.000   23.7    53   13.5   23.8   9.67 1.1589    114    1    100.0    5 
27/11/14  10:30    9.4    9.4    9.4    98    9.1   0.0    NE   0.00   1.0    NE    9.4    9.8    9.8  1002.4  0.00   0.0   0.031   0.000   23.7    53   13.6   23.8   9.66 1.1586    117    1    100.0    5 
27/11/14  10:35    9.5    9.5    9.4    98    9.2   0.0    NE   0.00   1.0    NE    9.5    9.8    9.8  1002.4  0.00   0.0   0.031   0.000   23.7    53   13.6   23.8   9.66 1.1586    117    1    100.0    5 
27/11/14  10:40    9.6    9.6    9.5    98    9.3   0.0   NNE   0.00   1.0   NNE    9.6    9.9    9.9  1002.3  0.00   0.0   0.030   0.000   23.8    52   13.3   23.9   9.55 1.1586    116    1    100.0    5 
27/11/14  10:45    9.6    9.6    9.5    98    9.3   0.0   ---   0.00   0.0   ---    9.6    9.9    9.9  1002.2  0.00   0.0   0.030   0.000   23.8    52   13.4   23.9   9.55 1.1583    116    1    100.0    5 
27/11/14  10:50    9.8    9.8    9.6    98    9.5   0.0   NNE   0.00   1.0   NNE    9.8   10.1   10.1  1002.2  0.00   0.0   0.030   0.000   23.8    52   13.4   23.9   9.55 1.1583    116    1    100.0    5 
27/11/14  10:55   10.0   10.0    9.8    98    9.7   0.0   NNE   0.00   2.0   NNE   10.0   10.3   10.3  1002.2  0.00   0.0   0.029   0.000   23.9    52   13.4   24.1   9.55 1.1579    116    1    100.0    5 
27/11/14  11:00   10.2   10.2   10.1    98    9.9   1.0     E   0.08   3.0     E   10.2   10.6   10.6  1002.2  0.00   0.0   0.028   0.000   23.9    52   13.4   24.1   9.55 1.1579    116    1    100.0    5 
27/11/14  11:05   10.3   10.3   10.2    98   10.0   1.0     E   0.08   3.0   ESE   10.3   10.7   10.7  1002.1  0.20   0.0   0.028   0.000   23.9    52   13.5   24.1   9.55 1.1576    116    1    100.0    5 
27/11/14  11:10   10.3   10.3   10.3    98   10.0   2.0   ENE   0.17   5.0     E   10.3   10.6   10.6  1002.0  0.00   0.0   0.028   0.000   23.9    51   13.2   24.1   9.35 1.1577    116    1    100.0    5 
27/11/14  11:15   10.2   10.3   10.2    98    9.9   2.0     E   0.17   5.0     E   10.2   10.6   10.6  1002.0  0.00   0.0   0.028   0.000   23.9    51   13.2   24.1   9.35 1.1578    117    1    100.0    5 
27/11/14  11:20   10.2   10.2   10.2    98    9.9   2.0     E   0.17   4.0   ESE   10.2   10.6   10.6  1001.9  0.00   0.0   0.028   0.000   23.9    51   13.2   24.1   9.35 1.1577    117    1    100.0    5 
27/11/14  11:25   10.2   10.2   10.2    98    9.9   1.0   ESE   0.08   3.0   ESE   10.2   10.6   10.6  1001.8  0.00   0.0   0.028   0.000   24.0    51   13.2   24.1   9.35 1.1573    117    1    100.0    5 
27/11/14  11:30   10.3   10.3   10.3    98   10.0   2.0   ENE   0.17   4.0   ENE   10.3   10.6   10.6  1001.8  0.00   0.0   0.028   0.000   24.0    51   13.2   24.1   9.35 1.1573    117    1    100.0    5 
27/11/14  11:35   10.2   10.3   10.2    98    9.9   1.0   ENE   0.08   4.0    NE   10.2   10.6   10.6  1001.7  0.00   0.0   0.028   0.000   24.0    51   13.2   24.1   9.35 1.1572    117    1    100.0    5 
27/11/14  11:40   10.2   10.2   10.2    98    9.9   2.0     E   0.17   5.0     E   10.2   10.6   10.6  1001.7  0.00   0.0   0.028   0.000   24.0    51   13.2   24.1   9.35 1.1571    117    1    100.0    5 
27/11/14  11:45   10.2   10.2   10.2    98    9.9   2.0     E   0.17   4.0   ENE   10.2   10.6   10.6  1001.6  0.00   0.0   0.028   0.000   23.9    51   13.2   24.1   9.35 1.1573    116    1    100.0    5 
27/11/14  11:50   10.2   10.2   10.2    98    9.9   2.0   ENE   0.17   5.0   ENE   10.2   10.5   10.5  1001.6  0.00   0.0   0.028   0.000   24.0    51   13.2   24.1   9.35 1.1570    117    1    100.0    5 
27/11/14  11:55   10.1   10.2   10.1    97    9.6   2.0    NE   0.17   7.0   ENE   10.1   10.4   10.4  1001.5  0.00   0.0   0.029   0.000   24.0    51   13.2   24.1   9.35 1.1569    117    1    100.0    5 
27/11/14  12:00   10.0   10.1   10.0    97    9.5   3.0   ENE   0.25   6.0     E    9.8   10.3   10.2  1001.5  0.00   0.0   0.029   0.000   24.0    51   13.2   24.1   9.35 1.1569    117    1    100.0    5 
27/11/14  12:05   10.0   10.0    9.9    98    9.7   2.0   ENE   0.17   5.0     E   10.0   10.3   10.3  1001.4  0.00   0.0   0.029   0.000   24.1    50   13.0   24.1   9.24 1.1569    117    1    100.0    5 
27/11/14  12:10   10.0   10.1   10.0    98    9.7   4.0   ENE   0.33   7.0   ENE    9.4   10.3    9.7  1001.4  0.00   0.0   0.029   0.000   24.1    50   13.0   24.1   9.24 1.1569    117    1    100.0    5 
27/11/14  12:15   10.0   10.0   10.0    98    9.7   3.0   ENE   0.25   7.0   ENE    9.8   10.3   10.2  1001.4  0.00   0.0   0.029   0.000   24.1    50   13.0   24.1   9.24 1.1569    117    1    100.0    5 
27/11/14  12:20   10.0   10.1   10.0    98    9.7   2.0   ENE   0.17   4.0   ENE   10.0   10.3   10.3  1001.4  0.00   0.0   0.029   0.000   24.1    50   13.0   24.1   9.24 1.1568    116    1    100.0    5 
27/11/14  12:25   10.1   10.1   10.0    98    9.8   2.0   ENE   0.17   4.0   ENE   10.1   10.4   10.4  1001.3  0.00   0.0   0.029   0.000   24.0    50   12.9   24.1   9.25 1.1571    116    1    100.0    5 
27/11/14  12:30   10.1   10.1   10.1    98    9.8   3.0   ENE   0.25   5.0   ENE    9.9   10.4   10.3  1001.3  0.00   0.0   0.029   0.000   24.1    50   13.0   24.1   9.24 1.1568    115    1    100.0    5 
27/11/14  12:35   10.2   10.2   10.1    97    9.7   3.0   ENE   0.25   7.0   ENE   10.0   10.5   10.3  1001.2  0.00   0.0   0.028   0.000   24.0    50   12.9   24.1   9.25 1.1569    117    1    100.0    5 
27/11/14  12:40   10.2   10.2   10.1    97    9.7   3.0   ENE   0.25   5.0   ENE   10.0   10.5   10.3  1001.3  0.00   0.0   0.028   0.000   24.0    50   12.9   24.1   9.25 1.1570    117    1    100.0    5 
27/11/14  12:45   10.2   10.2   10.2    97    9.7   4.0   ENE   0.33   7.0   ENE    9.6   10.5    9.9  1001.2  0.00   0.0   0.028   0.000   24.0    50   12.9   24.1   9.25 1.1569    117    1    100.0    5 
27/11/14  12:50   10.2   10.2   10.2    98    9.9   3.0    NE   0.25   6.0    NE   10.0   10.5   10.3  1001.1  0.00   0.0   0.028   0.000   24.0    50   12.9   24.1   9.25 1.1568    117    1    100.0    5 
27/11/14  12:55   10.2   10.2   10.2    98    9.9   3.0    NE   0.25   6.0   NNE   10.0   10.5   10.3  1001.1  0.00   0.0   0.028   0.000   24.0    50   12.9   24.1   9.25 1.1568    116    1    100.0    5 
27/11/14  13:00   10.1   10.2   10.1    97    9.7   2.0    NE   0.17   5.0    NE   10.1   10.4   10.4  1001.1  0.00   0.0   0.029   0.000   24.0    50   12.9   24.1   9.25 1.1567    117    1    100.0    5 
27/11/14  13:05   10.1   10.1   10.1    97    9.6   2.0    NE   0.17   4.0    NE   10.1   10.4   10.4  1001.1  0.00   0.0   0.029   0.000   24.0    50   12.9   24.1   9.25 1.1567    117    1    100.0    5 
27/11/14  13:10   10.1   10.1   10.1    97    9.7   2.0   ENE   0.17   5.0   ENE   10.1   10.4   10.4  1001.0  0.00   0.0   0.029   0.000   23.9    51   13.2   24.1   9.35 1.1566    117    1    100.0    5 
27/11/14  13:15   10.2   10.2   10.1    98    9.9   2.0   ENE   0.17   4.0   ENE   10.2   10.5   10.5  1001.0  0.00   0.0   0.028   0.000   24.0    51   13.2   24.1   9.35 1.1564    117    1    100.0    5 
27/11/14  13:20   10.2   10.2   10.2    97    9.7   2.0   ENE   0.17   3.0   ENE   10.2   10.5   10.5  1001.0  0.00   0.0   0.028   0.000   24.0    51   13.2   24.1   9.35 1.1563    116    1    100.0    5 
27/11/14  13:25   10.2   10.2   10.2    97    9.7   2.0   ENE   0.17   4.0   ENE   10.2   10.5   10.5  1001.0  0.00   0.0   0.028   0.000   24.0    51   13.2   24.1   9.35 1.1563    117    1    100.0    5 
27/11/14  13:30   10.2   10.2   10.2    97    9.7   1.0    NE   0.08   4.0    NE   10.2   10.5   10.5  1000.9  0.00   0.0   0.028   0.000   24.0    51   13.2   24.1   9.35 1.1562    117    1    100.0    5 
27/11/14  13:35   10.2   10.2   10.2    97    9.8   1.0    NE   0.08   3.0    NE   10.2   10.5   10.5  1000.9  0.00   0.0   0.028   0.000   24.1    51   13.3   24.1   9.35 1.1559    116    1    100.0    5 
27/11/14  13:40   10.2   10.2   10.2    97    9.8   2.0    NE   0.17   4.0    NE   10.2   10.5   10.5  1000.7  0.00   0.0   0.028   0.000   24.1    51   13.3   24.1   9.35 1.1557    117    1    100.0    5 
27/11/14  13:45   10.2   10.2   10.2    97    9.7   2.0    NE   0.17   4.0   NNE   10.2   10.5   10.5  1000.7  0.00   0.0   0.028   0.000   24.1    51   13.3   24.1   9.35 1.1557    117    1    100.0    5 
27/11/14  13:50   10.2   10.2   10.2    97    9.7   2.0    NE   0.17   4.0   NNE   10.2   10.5   10.5  1000.7  0.00   0.0   0.028   0.000   24.1    51   13.3   24.1   9.35 1.1558    117    1    100.0    5 
27/11/14  13:55   10.1   10.2   10.1    97    9.7   2.0    NE   0.17   5.0    NE   10.1   10.4   10.4  1000.7  0.00   0.0   0.029   0.000   24.1    51   13.3   24.1   9.35 1.1557    117    1    100.0    5 
27/11/14  14:00   10.2   10.2   10.1    97    9.7   2.0   ENE   0.17   4.0    NE   10.2   10.5   10.5  1000.7  0.00   0.0   0.028   0.000   24.1    51   13.3   24.1   9.35 1.1557    116    1    100.0    5 
27/11/14  14:05   10.2   10.2   10.2    97    9.8   2.0    NE   0.17   6.0    NE   10.2   10.5   10.5  1000.7  0.00   0.0   0.028   0.000   24.1    51   13.3   24.1   9.35 1.1558    117    1    100.0    5 
27/11/14  14:10   10.2   10.2   10.2    97    9.8   3.0    NE   0.25   5.0   ENE   10.1   10.5   10.3  1000.7  0.00   0.0   0.028   0.000   24.1    51   13.3   24.2   9.35 1.1554    116    1    100.0    5 
27/11/14  14:15   10.2   10.2   10.2    97    9.8   2.0   NNE   0.17   5.0    NE   10.2   10.5   10.5  1000.6  0.00   0.0   0.028   0.000   24.1    51   13.3   24.2   9.35 1.1554    116    1    100.0    5 
27/11/14  14:20   10.3   10.3   10.2    97    9.8   1.0    NE   0.08   4.0    NE   10.3   10.6   10.6  1000.6  0.00   0.0   0.028   0.000   24.1    51   13.3   24.2   9.35 1.1554    117    1    100.0    5 
27/11/14  14:25   10.3   10.3   10.3    97    9.8   3.0     E   0.25   6.0   NNE   10.2   10.6   10.4  1000.6  0.00   0.0   0.028   0.000   24.2    51   13.4   24.2   9.35 1.1550    117    1    100.0    5 
27/11/14  14:30   10.3   10.3   10.3    97    9.9   4.0   ENE   0.33   7.0     E    9.8   10.6   10.1  1000.5  0.00   0.0   0.028   0.000   24.2    51   13.4   24.2   9.35 1.1549    116    1    100.0    5 
27/11/14  14:35   10.3   10.3   10.3    97    9.9   3.0   ENE   0.25   7.0     E   10.2   10.6   10.5  1000.5  0.00   0.0   0.028   0.000   24.2    51   13.4   24.2   9.35 1.1549    117    1    100.0    5 
27/11/14  14:40   10.3   10.3   10.3    97    9.9   3.0   ENE   0.25   7.0   ENE   10.2   10.6   10.5  1000.5  0.00   0.0   0.028   0.000   24.2    51   13.4   24.3   9.35 1.1547    117    1    100.0    5 
27/11/14  14:45   10.3   10.3   10.3    97    9.9   3.0    NE   0.25   5.0    NE   10.2   10.6   10.5  1000.5  0.00   0.0   0.028   0.000   24.2    51   13.4   24.3   9.35 1.1547    116    1    100.0    5 
27/11/14  14:50   10.4   10.4   10.3    97    9.9   2.0   ENE   0.17   7.0   ENE   10.4   10.7   10.7  1000.4  0.00   0.0   0.028   0.000   24.3    51   13.5   24.3   9.35 1.1543    117    1    100.0    5 
27/11/14  14:55   10.4   10.4   10.4    97   10.0   2.0    NE   0.17   4.0    NE   10.4   10.7   10.7  1000.4  0.00   0.0   0.027   0.000   24.3    51   13.5   24.3   9.35 1.1543    115    1    100.0    5 
27/11/14  15:00   10.5   10.5   10.4    97   10.0   1.0   ENE   0.08   4.0   ENE   10.5   10.8   10.8  1000.4  0.00   0.0   0.027   0.000   24.3    51   13.5   24.3   9.35 1.1543    117    1    100.0    5 
27/11/14  15:05   10.6   10.6   10.6    97   10.2   2.0   ESE   0.17   6.0     E   10.6   10.9   10.9  1000.4  0.00   0.0   0.027   0.000   24.3    51   13.5   24.3   9.35 1.1543    116    1    100.0    5 
27/11/14  15:10   10.7   10.7   10.6    97   10.3   3.0   ESE   0.25   7.0   ESE   10.6   11.0   10.9  1000.4  0.00   0.0   0.026   0.000   24.3    51   13.5   24.4   9.35 1.1540    116    1    100.0    5 
27/11/14  15:15   10.8   10.8   10.7    97   10.4   6.0   SSE   0.50  10.0   SSE    9.7   11.1    9.9  1000.4  0.00   0.0   0.026   0.000   24.3    51   13.5   24.4   9.35 1.1540    116    1    100.0    5 
27/11/14  15:20   10.9   10.9   10.8    97   10.5  10.0   SSE   0.83  13.0   SSE    8.5   11.2    8.7  1000.4  0.00   0.0   0.026   0.000   24.3    51   13.5   24.4   9.35 1.1539    115    1    100.0    5 
27/11/14  15:25   11.0   11.0   10.9    97   10.5   9.0   SSE   0.75  12.0   SSE    8.9   11.2    9.1  1000.4  0.00   0.0   0.025   0.000   24.3    51   13.5   24.4   9.35 1.1540    117    1    100.0    5 
27/11/14  15:30   11.1   11.1   11.0    96   10.4   9.0   SSE   0.75  14.0   SSE    8.9   11.3    9.2  1000.4  0.00   0.0   0.025   0.000   24.3    52   13.8   24.4   9.53 1.1536    116    1    100.0    5 
27/11/14  15:35   11.0   11.1   11.0    95   10.2  11.0   SSE   0.92  14.0   SSE    8.3   11.2    8.4  1000.4  0.00   0.0   0.025   0.000   24.4    51   13.6   24.4   9.35 1.1537    117    1    100.0    5 
27/11/14  15:40   11.2   11.2   11.0    95   10.4   9.0   SSE   0.75  11.0   SSE    9.1   11.3    9.2  1000.4  0.00   0.0   0.025   0.000   24.4    51   13.6   24.4   9.35 1.1537    116    1    100.0    5 
27/11/14  15:45   11.2   11.2   11.2    95   10.5   9.0   SSE   0.75  13.0   SSE    9.1   11.4    9.3  1000.3  0.00   0.0   0.025   0.000   24.4    51   13.6   24.5   9.35 1.1534    116    1    100.0    5 
27/11/14  15:50   11.2   11.2   11.2    95   10.5   9.0   SSE   0.75  11.0   SSE    9.1   11.4    9.3  1000.3  0.00   0.0   0.025   0.000   24.4    51   13.6   24.4   9.35 1.1536    117    1    100.0    5 
27/11/14  15:55   11.3   11.3   11.2    95   10.6   9.0   SSE   0.75  11.0   SSE    9.3   11.5    9.4  1000.3  0.00   0.0   0.024   0.000   24.4    51   13.6   24.4   9.35 1.1536    115    1    100.0    5 
27/11/14  16:00   11.3   11.3   11.3    94   10.4   8.0   SSE   0.67  10.0   SSE    9.7   11.5    9.8  1000.3  0.00   0.0   0.024   0.000   24.4    51   13.6   24.4   9.35 1.1536    117    1    100.0    5 
27/11/14  16:05   11.3   11.3   11.3    95   10.6   7.0   SSE   0.58   9.0    SE   10.1   11.5   10.2  1000.3  0.00   0.0   0.024   0.000   24.4    51   13.6   24.5   9.35 1.1533    116    1    100.0    5 
27/11/14  16:10   11.3   11.3   11.3    95   10.6   7.0    SE   0.58   9.0    SE   10.1   11.5   10.2  1000.4  0.00   0.0   0.024   0.000   24.4    51   13.6   24.4   9.35 1.1537    115    1    100.0    5 
27/11/14  16:15   11.3   11.3   11.3    95   10.6   7.0    SE   0.58  10.0   ESE   10.1   11.5   10.2  1000.3  0.00   0.0   0.024   0.000   24.4    52   13.9   24.4   9.53 1.1532    117    1    100.0    5 
27/11/14  16:20   11.3   11.3   11.3    94   10.4   7.0    SE   0.58  10.0    SE   10.1   11.5   10.2  1000.3  0.00   0.0   0.024   0.000   24.4    53   14.2   24.6   9.65 1.1526    116    1    100.0    5 
27/11/14  16:25   11.3   11.3   11.3    94   10.4   8.0    SE   0.67  11.0    SE    9.7   11.5    9.8  1000.3  0.00   0.0   0.024   0.000   24.4    55   14.8   24.6  10.01 1.1519    117    1    100.0    5 
27/11/14  16:30   11.4   11.4   11.3    94   10.5   7.0    SE   0.58  10.0   ESE   10.1   11.6   10.3  1000.3  0.00   0.0   0.024   0.000   24.5    55   14.9   24.7  10.01 1.1516    117    1    100.0    5 
27/11/14  16:35   11.4   11.4   11.4    94   10.5   7.0    SE   0.58   9.0    SE   10.1   11.6   10.3  1000.3  0.00   0.0   0.024   0.000   24.5    56   15.1   24.7  10.21 1.1513    117    1    100.0    5 
27/11/14  16:40   11.3   11.4   11.3    94   10.4   8.0    SE   0.67  10.0   ESE    9.7   11.5    9.8  1000.4  0.00   0.0   0.024   0.000   24.6    56   15.2   24.8  10.20 1.1510    117    1    100.0    5 
27/11/14  16:45   11.3   11.4   11.3    94   10.4   8.0    SE   0.67  10.0   ESE    9.7   11.5    9.8  1000.4  0.00   0.0   0.024   0.000   24.6    56   15.2   24.8  10.20 1.1510    116    1    100.0    5 
27/11/14  16:50   11.3   11.3   11.3    94   10.4  10.0   ESE   0.83  14.0   ESE    8.9   11.5    9.1  1000.3  0.00   0.0   0.024   0.000   24.6    56   15.2   24.8  10.20 1.1507    116    1    100.0    5 
27/11/14  16:55   11.3   11.3   11.3    94   10.4  10.0    SE   0.83  14.0   ESE    8.9   11.5    9.1  1000.3  0.00   0.0   0.024   0.000   24.7    56   15.3   24.9  10.19 1.1504    117    1    100.0    5 
27/11/14  17:00   11.3   11.3   11.3    93   10.2  12.0   ESE   1.00  15.0   ESE    8.3   11.4    8.4  1000.3  0.00   0.0   0.024   0.000   24.7    56   15.3   24.9  10.19 1.1504    117    1    100.0    5 
27/11/14  17:05   11.3   11.3   11.3    93   10.2  12.0   ESE   1.00  15.0   ESE    8.3   11.4    8.4  1000.2  0.00   0.0   0.024   0.000   24.7    56   15.4   24.9  10.19 1.1500    117    1    100.0    5 
27/11/14  17:10   11.3   11.3   11.3    93   10.2  11.0    SE   0.92  14.0   ESE    8.6   11.4    8.7  1000.3  0.00   0.0   0.024   0.000   24.7    56   15.4   24.9  10.19 1.1501    117    1    100.0    5 
27/11/14  17:15   11.3   11.3   11.3    93   10.2  12.0   ESE   1.00  16.0   ESE    8.3   11.4    8.4  1000.3  0.00   0.0   0.024   0.000   24.8    55   15.1   24.9   9.99 1.1502    116    1    100.0    5 
27/11/14  17:20   11.3   11.3   11.3    93   10.2  12.0   ESE   1.00  15.0   ESE    8.3   11.4    8.4  1000.3  0.00   0.0   0.024   0.000   24.8    55   15.2   25.0   9.98 1.1499    118    1    100.0    5 
27/11/14  17:25   11.3   11.3   11.3    93   10.2  12.0   ESE   1.00  15.0   ESE    8.3   11.4    8.4  1000.3  0.00   0.0   0.024   0.000   24.8    55   15.2   25.0   9.98 1.1499    117    1    100.0    5 
27/11/14  17:30   11.3   11.3   11.3    93   10.2  14.0   ESE   1.17  16.0     E    7.9   11.4    8.0  1000.4  0.00   0.0   0.024   0.000   24.9    55   15.2   25.1   9.98 1.1497    117    1    100.0    5 
27/11/14  17:35   11.3   11.4   11.3    93   10.2  15.0    SE   1.25  19.0   ESE    7.7   11.4    7.8  1000.3  0.00   0.0   0.024   0.000   24.9    55   15.3   25.1   9.97 1.1494    117    1    100.0    5 
27/11/14  17:40   11.4   11.4   11.3    93   10.4  15.0   ESE   1.25  19.0   ESE    7.9   11.6    8.0  1000.3  0.00   0.0   0.024   0.000   25.0    55   15.3   25.2   9.97 1.1491    117    1    100.0    5 
27/11/14  17:45   11.6   11.6   11.4    92   10.3  15.0    SE   1.25  19.0   ESE    8.0   11.7    8.1  1000.3  0.00   0.0   0.024   0.000   25.0    55   15.3   25.2   9.97 1.1490    114    1    100.0    5 
27/11/14  17:50   11.6   11.6   11.5    92   10.3  15.0    SE   1.25  19.0   ESE    8.0   11.7    8.1  1000.3  0.00   0.0   0.024   0.000   25.1    55   15.4   25.2   9.97 1.1487    115    1    100.0    5 
27/11/14  17:55   11.7   11.7   11.6    92   10.4  15.0   ESE   1.25  19.0   ESE    8.1   11.8    8.2  1000.3  0.00   0.0   0.023   0.000   25.1    55   15.4   25.2   9.97 1.1488    117    1    100.0    5 
27/11/14  18:00   11.6   11.7   11.6    92   10.3  16.0   ESE   1.33  20.0   ESE    7.8   11.7    7.9  1000.3  0.00   0.0   0.024   0.000   25.1    55   15.4   25.2   9.97 1.1487    116    1    100.0    5 
27/11/14  18:05   11.5   11.6   11.5    92   10.2  15.0   ESE   1.25  21.0   ESE    7.9   11.6    8.1  1000.3  0.00   0.0   0.024   0.000   25.1    55   15.4   25.3   9.96 1.1485    116    1    100.0    5 
27/11/14  18:10   11.5   11.5   11.5    92   10.2  16.0   ESE   1.33  18.0   ESE    7.8   11.6    7.9  1000.3  0.00   0.0   0.024   0.000   25.1    55   15.4   25.3   9.96 1.1485    117    1    100.0    5 
27/11/14  18:15   11.6   11.6   11.5    92   10.4  15.0   ESE   1.25  19.0   ESE    8.1   11.7    8.2  1000.4  0.00   0.0   0.023   0.000   25.1    55   15.4   25.3   9.96 1.1486    116    1    100.0    5 
27/11/14  18:20   11.7   11.7   11.6    92   10.4  15.0    SE   1.25  19.0   ESE    8.1   11.8    8.2  1000.3  0.00   0.0   0.023   0.000   25.1    55   15.4   25.3   9.96 1.1485    116    1    100.0    5 
27/11/14  18:25   11.7   11.7   11.7    92   10.4  14.0    SE   1.17  18.0   ESE    8.3   11.8    8.4  1000.3  0.00   0.0   0.023   0.000   25.1    55   15.4   25.3   9.96 1.1485    118    1    100.0    5 
27/11/14  18:30   11.7   11.7   11.7    92   10.4  15.0    SE   1.25  18.0    SE    8.1   11.8    8.2  1000.3  0.00   0.0   0.023   0.000   25.1    55   15.4   25.3   9.96 1.1485    117    1    100.0    5 
27/11/14  18:35   11.7   11.7   11.7    92   10.5  14.0    SE   1.17  18.0    SE    8.3   11.8    8.4  1000.3  0.00   0.0   0.023   0.000   25.1    55   15.4   25.3   9.96 1.1485    117    1    100.0    5 
27/11/14  18:40   11.7   11.7   11.7    91   10.3  14.0    SE   1.17  18.0   ESE    8.3   11.8    8.4  1000.3  0.00   0.0   0.023   0.000   25.1    55   15.4   25.3   9.96 1.1485    116    1    100.0    5 
27/11/14  18:45   11.8   11.8   11.7    91   10.4  15.0    SE   1.25  18.0    SE    8.2   11.8    8.3  1000.3  0.00   0.0   0.023   0.000   25.2    54   15.2   25.3   9.80 1.1486    116    1    100.0    5 
27/11/14  18:50   11.8   11.8   11.8    91   10.4  15.0    SE   1.25  21.0    SE    8.2   11.8    8.3  1000.4  0.00   0.0   0.023   0.000   25.2    54   15.2   25.3   9.80 1.1487    117    1    100.0    5 
27/11/14  18:55   11.8   11.8   11.8    91   10.4  16.0    SE   1.33  20.0    SE    8.1   11.9    8.2  1000.4  0.00   0.0   0.023   0.000   25.2    55   15.5   25.4   9.96 1.1483    117    1    100.0    5 
27/11/14  19:00   11.8   11.9   11.8    91   10.4  16.0    SE   1.33  20.0    SE    8.1   11.9    8.2  1000.4  0.00   0.0   0.023   0.000   25.2    55   15.5   25.4   9.95 1.1481    117    1    100.0    5 
27/11/14  19:05   11.9   11.9   11.8    90   10.3  16.0    SE   1.33  20.0    SE    8.2   11.9    8.2  1000.4  0.00   0.0   0.022   0.000   25.2    56   15.8   25.5  10.15 1.1477    117    1    100.0    5 
27/11/14  19:10   11.9   11.9   11.8    90   10.3  15.0    SE   1.25  19.0    SE    8.3   11.9    8.4  1000.4  0.00   0.0   0.022   0.000   25.2    57   16.1   25.6  10.25 1.1473    117    1    100.0    5 
27/11/14  19:15   11.8   11.9   11.8    90   10.2  16.0    SE   1.33  21.0    SE    8.1   11.9    8.2  1000.4  0.00   0.0   0.023   0.000   25.3    58   16.4   25.7  10.45 1.1466    116    1    100.0    5 
27/11/14  19:20   11.9   11.9   11.8    91   10.5  14.0    SE   1.17  20.0    SE    8.6   11.9    8.6  1000.4  0.00   0.0   0.022   0.000   25.3    58   16.4   25.7  10.45 1.1467    117    1    100.0    5 
27/11/14  19:25   11.9   11.9   11.8    91   10.5  15.0    SE   1.25  19.0    SE    8.3   11.9    8.4  1000.4  0.00   0.0   0.022   0.000   25.3    59   16.7   25.8  10.65 1.1460    117    1    100.0    5 
27/11/14  19:30   11.8   11.9   11.8    91   10.4  15.0    SE   1.25  19.0    SE    8.3   11.9    8.3  1000.4  0.00   0.0   0.023   0.000   25.3    58   16.5   25.7  10.45 1.1464    116    1    100.0    5 
27/11/14  19:35   11.8   11.8   11.8    91   10.4  15.0    SE   1.25  19.0   ESE    8.2   11.8    8.3  1000.3  0.00   0.0   0.023   0.000   25.3    57   16.2   25.7  10.25 1.1467    115    1    100.0    5 
27/11/14  19:40   11.7   11.8   11.7    91   10.3  13.0    SE   1.08  17.0    SE    8.6   11.8    8.6  1000.4  0.00   0.0   0.023   0.000   25.3    57   16.2   25.7  10.25 1.1467    116    1    100.0    5 
27/11/14  19:45   11.7   11.7   11.7    91   10.2  14.0    SE   1.17  18.0   ESE    8.3   11.7    8.3  1000.4  0.00   0.0   0.023   0.000   25.3    56   15.9   25.6  10.15 1.1474    117    1    100.0    5 
27/11/14  19:50   11.6   11.7   11.6    91   10.1  16.0    SE   1.33  20.0    SE    7.8   11.7    7.9  1000.4  0.00   0.0   0.024   0.000   25.3    56   15.9   25.6  10.15 1.1474    117    1    100.0    5 
27/11/14  19:55   11.6   11.6   11.6    91   10.1  14.0    SE   1.17  18.0   ESE    8.2   11.7    8.3  1000.5  0.00   0.0   0.024   0.000   25.3    56   15.9   25.6  10.15 1.1475    116    1    100.0    5 
27/11/14  20:00   11.6   11.6   11.6    91   10.1  15.0    SE   1.25  20.0    SE    8.0   11.7    8.1  1000.5  0.00   0.0   0.024   0.000   25.3    55   15.6   25.5   9.95 1.1479    117    1    100.0    5 
27/11/14  20:05   11.5   11.6   11.5    91   10.1  15.0    SE   1.25  19.0   ESE    7.9   11.6    8.1  1000.4  0.00   0.0   0.024   0.000   25.2    55   15.5   25.4   9.95 1.1481    117    1    100.0    5 
27/11/14  20:10   11.5   11.6   11.5    92   10.2  15.0    SE   1.25  21.0    SE    7.9   11.6    8.1  1000.5  0.00   0.0   0.024   0.000   25.2    55   15.5   25.4   9.95 1.1482    116    1    100.0    5 
27/11/14  20:15   11.5   11.6   11.5    92   10.2  14.0    SE   1.17  20.0    SE    8.1   11.6    8.2  1000.5  0.00   0.0   0.024   0.000   25.2    55   15.5   25.4   9.95 1.1481    117    1    100.0    5 
27/11/14  20:20   11.6   11.6   11.5    92   10.3  15.0    SE   1.25  19.0   ESE    8.0   11.7    8.1  1000.4  0.00   0.0   0.024   0.000   25.2    55   15.5   25.4   9.95 1.1481    117    1    100.0    5 
27/11/14  20:25   11.5   11.6   11.5    92   10.2  15.0    SE   1.25  20.0    SE    7.9   11.6    8.1  1000.4  0.00   0.0   0.024   0.000   25.2    54   15.2   25.3   9.80 1.1487    117    1    100.0    5 
27/11/14  20:30   11.6   11.6   11.5    92   10.3  13.0    SE   1.08  18.0    SE    8.4   11.7    8.5  1000.4  0.00   0.0   0.024   0.000   25.2    54   15.2   25.3   9.80 1.1487    117    1    100.0    5 
27/11/14  20:35   11.5   11.6   11.5    92   10.2  15.0    SE   1.25  19.0   ESE    7.9   11.6    8.1  1000.4  0.00   0.0   0.024   0.000   25.2    54   15.2   25.3   9.80 1.1487    117    1    100.0    5 
27/11/14  20:40   11.4   11.5   11.4    92   10.2  15.0    SE   1.25  18.0    SE    7.9   11.6    8.0  1000.3  0.00   0.0   0.024   0.000   25.1    54   15.1   25.2   9.81 1.1489    117    1    100.0    5 
27/11/14  20:45   11.6   11.6   11.5    92   10.3  14.0    SE   1.17  18.0   ESE    8.2   11.7    8.3  1000.4  0.00   0.0   0.024   0.000   25.1    54   15.1   25.2   9.81 1.1490    116    1    100.0    5 
27/11/14  20:50   11.4   11.6   11.4    91   10.0  15.0    SE   1.25  19.0   ESE    7.9   11.6    8.0  1000.3  0.00   0.0   0.024   0.000   25.1    54   15.1   25.2   9.81 1.1492    117    1    100.0    5 
27/11/14  20:55   11.4   11.4   11.4    91   10.0  14.0   ESE   1.17  18.0   ESE    8.1   11.6    8.2  1000.1  0.00   0.0   0.024   0.000   25.1    54   15.1   25.2   9.81 1.1490    115    1    100.0    5 
27/11/14  21:00   11.4   11.4   11.4    91   10.0  15.0   ESE   1.25  19.0   ESE    7.8   11.5    7.9  1000.1  0.00   0.0   0.024   0.000   25.0    53   14.8   25.1   9.65 1.1496    117    1    100.0    5 
27/11/14  21:05   11.4   11.4   11.4    92   10.2  14.0   ESE   1.17  18.0   ESE    8.1   11.6    8.2  1000.1  0.00   0.0   0.024   0.000   25.0    53   14.8   25.1   9.65 1.1496    116    1    100.0    5 
27/11/14  21:10   11.5   11.5   11.4    92   10.2  15.0   ESE   1.25  19.0   ESE    7.9   11.6    8.1  1000.1  0.00   0.0   0.024   0.000   25.0    53   14.8   25.1   9.65 1.1496    116    1    100.0    5 
27/11/14  21:15   11.5   11.5   11.5    92   10.2  14.0   ESE   1.17  18.0   ESE    8.1   11.6    8.2  1000.0  0.00   0.0   0.024   0.000   24.9    53   14.7   25.0   9.65 1.1498    116    1    100.0    5 
27/11/14  21:20   11.4   11.5   11.4    92   10.2  14.0   ESE   1.17  18.0   ESE    8.1   11.6    8.2  1000.0  0.00   0.0   0.024   0.000   24.9    53   14.7   25.0   9.65 1.1497    117    1    100.0    5 
27/11/14  21:25   11.4   11.4   11.4    91   10.0  13.0   ESE   1.08  17.0   ESE    8.3   11.6    8.4  1000.0  0.00   0.0   0.024   0.000   24.9    53   14.7   24.9   9.65 1.1500    117    1    100.0    5 
27/11/14  21:30   11.4   11.4   11.4    92   10.2  13.0   ESE   1.08  16.0     E    8.3   11.6    8.4   999.9  0.00   0.0   0.024   0.000   24.8    52   14.3   24.8   9.52 1.1506    117    1    100.0    5 
27/11/14  21:35   11.5   11.5   11.4    92   10.2  13.0   ESE   1.08  17.0   ESE    8.3   11.6    8.4   999.9  0.00   0.0   0.024   0.000   24.8    52   14.3   24.8   9.52 1.1506    118    1    100.0    5 
27/11/14  21:40   11.5   11.5   11.5    92   10.2  14.0   ESE   1.17  18.0     E    8.1   11.6    8.2   999.9  0.00   0.0   0.024   0.000   24.8    52   14.3   24.8   9.52 1.1509    117    1    100.0    5 
27/11/14  21:45   11.6   11.6   11.5    92   10.3  14.0   ESE   1.17  21.0   ESE    8.2   11.7    8.3  1000.0  0.00   0.0   0.024   0.000   24.8    52   14.3   24.8   9.52 1.1510    116    1    100.0    5 
27/11/14  21:50   11.6   11.6   11.6    92   10.4  13.0   ESE   1.08  18.0   ESE    8.4   11.7    8.6   999.9  0.00   0.0   0.023   0.000   24.7    52   14.2   24.8   9.52 1.1511    116    1    100.0    5 
27/11/14  21:55   11.7   11.7   11.6    92   10.4  13.0   ESE   1.08  16.0   ESE    8.5   11.8    8.6   999.9  0.00   0.0   0.023   0.000   24.7    52   14.2   24.8   9.52 1.1511    117    1    100.0    5 
27/11/14  22:00   11.7   11.7   11.6    92   10.4  11.0   ESE   0.92  16.0   ESE    9.0   11.8    9.1   999.8  0.00   0.0   0.023   0.000   24.7    52   14.2   24.8   9.52 1.1509    117    1    100.0    5 
27/11/14  22:05   11.7   11.7   11.7    92   10.5  12.0   ESE   1.00  16.0   ESE    8.8   11.8    8.9   999.9  0.00   0.0   0.023   0.000   24.7    52   14.2   24.7   9.52 1.1513    117    1    100.0    5 
27/11/14  22:10   11.8   11.8   11.7    92   10.5  13.0   ESE   1.08  17.0   ESE    8.6   11.9    8.7   999.9  0.00   0.0   0.023   0.000   24.7    52   14.2   24.7   9.52 1.1514    117    1    100.0    5 
27/11/14  22:15   11.8   11.8   11.8    92   10.5  15.0   ESE   1.25  18.0   ESE    8.2   11.9    8.3  1000.0  0.00   0.0   0.023   0.000   24.7    52   14.2   24.7   9.52 1.1515    117    1    100.0    5 
27/11/14  22:20   11.8   11.8   11.7    92   10.5  14.0   ESE   1.17  19.0   ESE    8.4   11.9    8.5  1000.0  0.00   0.0   0.023   0.000   24.6    52   14.1   24.7   9.52 1.1518    116    1    100.0    5 
27/11/14  22:25   11.8   11.8   11.8    92   10.6  13.0   ESE   1.08  18.0   ESE    8.7   11.9    8.8  1000.0  0.00   0.0   0.023   0.000   24.6    52   14.1   24.7   9.52 1.1518    115    1    100.0    5 
27/11/14  22:30   11.8   11.8   11.8    92   10.6  14.0   ESE   1.17  19.0   ESE    8.5   11.9    8.6  1000.0  0.00   0.0   0.023   0.000   24.6    52   14.1   24.7   9.52 1.1517    117    1    100.0    5 
27/11/14  22:35   11.8   11.8   11.8    92   10.5  14.0   ESE   1.17  17.0     E    8.4   11.9    8.5   999.9  0.00   0.0   0.023   0.000   24.6    52   14.0   24.6   9.53 1.1519    118    1    100.0    5 
27/11/14  22:40   11.8   11.8   11.8    92   10.5  13.0   ESE   1.08  18.0   ESE    8.6   11.9    8.7  1000.0  0.00   0.0   0.023   0.000   24.6    52   14.0   24.6   9.53 1.1520    117    1    100.0    5 
27/11/14  22:45   11.8   11.8   11.8    92   10.5  12.0   ESE   1.00  17.0   ESE    8.8   11.9    8.9   999.9  0.00   0.0   0.023   0.000   24.6    52   14.0   24.6   9.53 1.1520    117    1    100.0    5 
116186